Home > Products > Valid Products > MTR

000
SAUS46 KLOX 241758
MTR9L2
METAR K9L2 241755Z AUTO 00000KT 10SM CLR 23/M04 A3008 RMK AO2 SLP176
T02281039 10228 20061 50001 $





000
SAUS46 KLOX 241754
MTRLAX
METAR KLAX 241753Z 00000KT 9SM CLR 26/12 A2999 RMK AO2 SLP154
T02560122 10256 20156 50004 $





000
SAUS46 KLOX 241752
MTRSMX
METAR KSMX 241751Z 00000KT 9SM CLR 17/11 A3000 RMK AO2 SLP162
T01670111 10167 20117 50002





000
SAUS46 KLOX 241750
MTRSDB
METAR KSDB 241748Z AUTO 17014KT 10SM CLR 24/M13 A3019 RMK AO2 SLP167
T02441133 10244 20178 50008





000
SAUS46 KLOX 241748
MTRCQT
METAR KCQT 241747Z AUTO 00000KT 7SM CLR 27/08 A2998 RMK AO2 SLP149
T02720083 10272 20150 50002





000
SAUS46 KLOX 241737
MTRMWS
METAR KMWS 241730Z 23500G00KT MM/M02 RMK SNOW DEPTH 4.00





000
SAUS46 KLOX 241715
MTRMWS
METAR KMWS 241700Z 19002G06KT 22/M04 RMK SNOW DEPTH 4.00





000
SAUS46 KLOX 241709
MTRSMX
SPECI KSMX 241708Z 00000KT 5SM BR SCT004 13/12 A3001 RMK AO2
T01330117





000
SAUS46 KLOX 241659
MTRSMX
SPECI KSMX 241658Z 00000KT 5SM BR BKN004 13/12 A3001 RMK AO2
T01330117





000
SAUS46 KLOX 241657
MTR9L2
METAR K9L2 241655Z AUTO 00000KT 10SM CLR 19/M04 A3009 RMK AO2 SLP179
T01891039 $





000
SAUS46 KLOX 241654
MTRLAX
METAR KLAX 241653Z 13005KT 9SM FEW250 22/11 A2999 RMK AO2 SLP154
T02220111 $





000
SAUS46 KLOX 241652
MTRSMX
METAR KSMX 241651Z 00000KT 1 1/2SM BR BKN002 13/12 A3001 RMK AO2
SLP164 T01280117





000
SAUS46 KLOX 241649
MTRSDB
METAR KSDB 241648Z AUTO 18013KT 10SM CLR 23/M08 A3019 RMK AO2 SLP170
T02281083





000
SAUS46 KLOX 241648
MTRCQT
METAR KCQT 241647Z AUTO VRB03KT 10SM CLR 24/06 A2998 RMK AO2 SLP151
T02440056





000
SAUS46 KLOX 241636
MTRMWS
METAR KMWS 241630Z 23500G00KT MM/M04 RMK SNOW DEPTH 4.00





000
SAUS46 KLOX 241623
MTRSMX
SPECI KSMX 241622Z 00000KT 1 1/2SM R12/4500VP6000FT BR OVC002 12/11
A3001 RMK AO2 T01220111





000
SAUS46 KLOX 241615
MTRMWS
METAR KMWS 241600Z 16008G11KT 21/M07 RMK SNOW DEPTH 4.00





000
SAUS46 KLOX 241607
MTRSMX
SPECI KSMX 241606Z 00000KT 1/4SM R12/0800VP6000FT FG VV002 13/11
A3001 RMK AO2 T01280111





000
SAUS46 KLOX 241601
MTRSMX
SPECI KSMX 241559Z 35003KT M1/4SM R12/0800V1400FT FG VV002 13/11
A3001 RMK AO2 T01280111





000
SAUS46 KLOX 241558
MTR9L2
METAR K9L2 241555Z AUTO 00000KT 10SM CLR 15/M04 A3009 RMK AO2 SLP181
T01501044 TSNO $





000
SAUS46 KLOX 241554
MTRMWS
METAR KMWS 241545Z 16506G13KT 20/M08 RMK SNOW DEPTH 4.00





000
SAUS46 KLOX 241554
MTRLAX
METAR KLAX 241553Z 10003KT 10SM FEW220 20/10 A2999 RMK AO2 SLP154
T02000100 $





000
SAUS46 KLOX 241552
MTRSMX
METAR KSMX 241551Z 00000KT M1/4SM R12/1000V1800FT FG VV001 12/11
A3001 RMK AO2 SLP165 T01220111





000
SAUS46 KLOX 241549
MTRSDB
METAR KSDB 241548Z AUTO 17011KT 10SM CLR 22/M13 A3018 RMK AO2 SLP167
T02221133





000
SAUS46 KLOX 241548
MTRCQT
METAR KCQT 241547Z AUTO 00000KT 10SM CLR 20/08 A2999 RMK AO2 SLP152
T02000083





000
SAUS46 KLOX 241542
MTRMWS
METAR KMWS 241530Z 18004G10KT 20/M07 RMK SNOW DEPTH 3.00





000
SAUS46 KLOX 241528
MTRSMX
SPECI KSMX 241527Z 00000KT M1/4SM R12/1200V2000FT FG VV001 12/10
A3001 RMK AO2 T01170100





000
SAUS46 KLOX 241515
MTRMWS
METAR KMWS 241500Z 17505G10KT 17/M09 RMK SNOW DEPTH 3.00





000
SAUS46 KLOX 241456
MTR9L2
METAR K9L2 241455Z AUTO 00000KT 10SM CLR 09/M06 A3007 RMK AO2 SLP178
T00891061 53014 TSNO $





000
SAUS46 KLOX 241454
MTRMWS
METAR KMWS 241445Z 18505G09KT 16/M09 RMK SNOW DEPTH 3.00





000
SAUS46 KLOX 241454
MTRLAX
METAR KLAX 241453Z 00000KT 10SM FEW200 17/12 A2998 RMK AO2 SLP150
T01720117 53010 $





000
SAUS46 KLOX 241452
MTRSMX
METAR KSMX 241451Z 00000KT M1/4SM R12/1000V1600FT FG VV002 12/10
A3000 RMK AO2 SLP160 T01170100 53006





000
SAUS46 KLOX 241449
MTRSDB
METAR KSDB 241448Z AUTO 18011KT 10SM CLR 19/M09 A3016 RMK AO2 SLP164
T01941094 53008





000
SAUS46 KLOX 241449
MTRSDB
METAR KSDB 241448Z AUTO 18011KT 10SM CLR 19/M09 A3016 RMK AO2 SLP164
T01941094 53008





000
SAUS46 KLOX 241448
MTRCQT
METAR KCQT 241447Z AUTO 00000KT 10SM CLR 16/08 A2997 RMK AO2 SLP149
T01610083 53008





000
SAUS46 KLOX 241437
MTRSMX
SPECI KSMX 241435Z 00000KT 1/4SM R12/1200V3000FT FG VV002 12/10
A2999 RMK AO2 T01170100





000
SAUS46 KLOX 241437
MTRSMX
SPECI KSMX 241435Z 00000KT 1/4SM R12/1200V3000FT FG VV002 12/10
A2999 RMK AO2 T01170100





000
SAUS46 KLOX 241436
MTRMWS
METAR KMWS 241430Z 23500G00KT MM/M08 RMK SNOW DEPTH 3.00





000
SAUS46 KLOX 241436
MTRMWS
METAR KMWS 241430Z 23500G00KT MM/M08 RMK SNOW DEPTH 3.00





000
SAUS46 KLOX 241415
MTRMWS
METAR KMWS 241400Z 17507G12KT 15/M09 RMK SNOW DEPTH 3.00





000
SAUS46 KLOX 241415
MTRMWS
METAR KMWS 241400Z 17507G12KT 15/M09 RMK SNOW DEPTH 3.00





000
SAUS46 KLOX 241411
MTRSMX
SPECI KSMX 241410Z 00000KT 1/4SM R12/1400V2000FT FG VV001 12/11
A2999 RMK AO2 T01170106





000
SAUS46 KLOX 241411
MTRSMX
SPECI KSMX 241410Z 00000KT 1/4SM R12/1400V2000FT FG VV001 12/11
A2999 RMK AO2 T01170106





000
SAUS46 KLOX 241358
MTR9L2
METAR K9L2 241355Z AUTO 00000KT 10SM CLR 07/M07 A3005 RMK AO2 SLP172
T00671072 TSNO $





000
SAUS46 KLOX 241354
MTRMWS
METAR KMWS 241345Z 18502G08KT 15/M08 RMK SNOW DEPTH 3.00





000
SAUS46 KLOX 241354
MTRLAX
METAR KLAX 241353Z 00000KT 10SM FEW200 16/14 A2997 RMK AO2 SLP145
T01610144 $





000
SAUS46 KLOX 241352
MTRSMX
METAR KSMX 241351Z 14003KT 1/4SM R12/1600V2000FT FG VV002 12/11
A2999 RMK AO2 SLP157 T01220106





000
SAUS46 KLOX 241349
MTRSDB
METAR KSDB 241348Z AUTO 19011KT 10SM CLR 18/M06 A3014 RMK AO2 SLP158
T01831056





000
SAUS46 KLOX 241348
MTRCQT
METAR KCQT 241347Z AUTO 00000KT 8SM CLR 16/08 A2996 RMK AO2 SLP144
T01560083





000
SAUS46 KLOX 241336
MTRMWS
METAR KMWS 241330Z 23500G00KT MM/M07 RMK SNOW DEPTH 3.00





000
SAUS46 KLOX 241332
MTRSMX
SPECI KSMX 241331Z 14003KT 1/4SM R12/1800V2200FT FG VV002 12/11
A2999 RMK AO2 T01220111





000
SAUS46 KLOX 241315
MTRMWS
METAR KMWS 241300Z 19005G10KT 15/M07 RMK SNOW DEPTH 3.00





000
SAUS46 KLOX 241300
MTRSMX
SPECI KSMX 241258Z 15003KT 1/4SM R12/1800V2600FT FG VV002 13/12
A2999 RMK AO2 T01280117





000
SAUS46 KLOX 241258
MTR9L2
METAR K9L2 241255Z AUTO 31003KT 10SM CLR 07/M07 A3004 RMK AO2 SLP165
T00671072 TSNO $





000
SAUS46 KLOX 241254
MTRMWS
METAR KMWS 241245Z 20006G09KT 16/M07 RMK SNOW DEPTH 3.00





000
SAUS46 KLOX 241254
MTRLAX
METAR KLAX 241253Z 00000KT 10SM CLR 16/14 A2995 RMK AO2 SLP141
T01610139 $





000
SAUS46 KLOX 241253
MTRSMX
METAR KSMX 241251Z 15003KT 1/4SM R12/2000V2200FT FG VV002 13/12
A2998 RMK AO2 SLP154 T01280117





000
SAUS46 KLOX 241249
MTRSDB
METAR KSDB 241248Z AUTO 19011KT 10SM CLR 18/M06 A3014 RMK AO2 SLP154
T01831056





000
SAUS46 KLOX 241248
MTRCQT
METAR KCQT 241247Z AUTO 00000KT 10SM CLR 16/09 A2995 RMK AO2 SLP139
T01560094





000
SAUS46 KLOX 241236
MTRMWS
METAR KMWS 241230Z 23500G00KT MM/M04 RMK SNOW DEPTH 3.00





000
SAUS46 KLOX 241215
MTRMWS
METAR KMWS 241200Z 18504G09KT 15/M08 RMK SNOW DEPTH 3.00





000
SAUS46 KLOX 241158
MTR9L2
METAR K9L2 241155Z AUTO 00000KT 10SM CLR 07/M07 A3003 RMK AO2 SLP160
T00721072 10139 20067 55001 TSNO $





000
SAUS46 KLOX 241154
MTRMWS
METAR KMWS 241145Z 16505G10KT 16/M06 RMK SNOW DEPTH 3.00





000
SAUS46 KLOX 241154
MTRLAX
METAR KLAX 241153Z 08003KT 10SM CLR 16/14 A2995 RMK AO2 SLP140
T01610144 10206 20156 55006 $





000
SAUS46 KLOX 241153
MTRSMX
METAR KSMX 241151Z AUTO 12003KT 1/4SM R12/1600V1800FT FG VV002 13/12
A2998 RMK AO2 SLP152 T01330117 10150 20106 55002





000
SAUS46 KLOX 241149
MTRSDB
METAR KSDB 241148Z AUTO 18012KT 10SM CLR 18/M05 A3013 RMK AO2 SLP149
T01831050 10194 20183 55004





000
SAUS46 KLOX 241148
MTRCQT
METAR KCQT 241147Z AUTO 00000KT 10SM CLR 16/10 A2995 RMK AO2 SLP139
T01610100 10194 20156 55005





000
SAUS46 KLOX 241136
MTRMWS
METAR KMWS 241130Z 23500G00KT MM/M13 RMK SNOW DEPTH 4.00





000
SAUS46 KLOX 241115
MTRMWS
METAR KMWS 241100Z 17008G16KT 16/M08 RMK SNOW DEPTH 3.00





000
SAUS46 KLOX 241058
MTR9L2
METAR K9L2 241055Z AUTO 00000KT 10SM CLR 08/M08 A3002 RMK AO2 SLP158
T00781078 TSNO $





000
SAUS46 KLOX 241058
MTR9L2
METAR K9L2 241055Z AUTO 00000KT 10SM CLR 08/M08 A3002 RMK AO2 SLP158
T00781078 TSNO $





000
SAUS46 KLOX 241054
MTRLAX
METAR KLAX 241053Z 00000KT 8SM BCFG FEW001 16/16 A2995 RMK AO2
SLP138 T01610161 $





000
SAUS46 KLOX 241054
MTRLAX
METAR KLAX 241053Z 00000KT 8SM BCFG FEW001 16/16 A2995 RMK AO2
SLP138 T01610161 $





000
SAUS46 KLOX 241054
MTRMWS
METAR KMWS 241045Z 17007G12KT 16/M03 RMK SNOW DEPTH 3.00





000
SAUS46 KLOX 241054
MTRMWS
METAR KMWS 241045Z 17007G12KT 16/M03 RMK SNOW DEPTH 3.00





000
SAUS46 KLOX 241052
MTRSMX
METAR KSMX 241051Z AUTO 00000KT 1/4SM R12/1600V1800FT FG VV002 13/12
A2998 RMK AO2 SLP152 T01330117





000
SAUS46 KLOX 241052
MTRSMX
METAR KSMX 241051Z AUTO 00000KT 1/4SM R12/1600V1800FT FG VV002 13/12
A2998 RMK AO2 SLP152 T01330117





000
SAUS46 KLOX 241049
MTRSDB
METAR KSDB 241048Z AUTO 19010G17KT 10SM CLR 18/M05 A3013 RMK AO2
SLP147 T01831050





000
SAUS46 KLOX 241048
MTRCQT
METAR KCQT 241047Z AUTO 00000KT 10SM CLR 16/13 A2995 RMK AO2 SLP138
T01610128





000
SAUS46 KLOX 241036
MTRMWS
METAR KMWS 241030Z 23500G00KT MM/00 RMK SNOW DEPTH 3.00





000
SAUS46 KLOX 241036
MTRSMX
SPECI KSMX 241034Z AUTO 00000KT 1/4SM R12/1400V1600FT FG VV002 13/12
A2998 RMK AO2 T01280117





000
SAUS46 KLOX 241015
MTRMWS
METAR KMWS 241000Z 17506G14KT 16/M04 RMK SNOW DEPTH 3.00





000
SAUS46 KLOX 241000
MTR9L2
METAR K9L2 240955Z AUTO 15004KT 10SM CLR 10/M07 A3003 RMK AO2 SLP160
T01001072 TSNO $





000
SAUS46 KLOX 241000
MTR9L2
METAR K9L2 240955Z AUTO 15004KT 10SM CLR 10/M07 A3003 RMK AO2 SLP160
T01001072 TSNO $





000
SAUS46 KLOX 240957
MTRMWS
METAR KMWS 240945Z 17007G10KT 17/M02 RMK SNOW DEPTH 3.00





000
SAUS46 KLOX 240957
MTRMWS
METAR KMWS 240945Z 17007G10KT 17/M02 RMK SNOW DEPTH 3.00





000
SAUS46 KLOX 240954
MTRLAX
METAR KLAX 240953Z 00000KT 8SM BCFG FEW001 18/18 A2996 RMK AO2
SLP141 T01780178 $





000
SAUS46 KLOX 240952
MTRSMX
METAR KSMX 240951Z AUTO 00000KT 1/4SM R12/1200V1400FT FG VV001 13/11
A2998 RMK AO2 SLP154 T01280111





000
SAUS46 KLOX 240949
MTRSDB
METAR KSDB 240948Z AUTO 19011KT 10SM CLR 19/M05 A3014 RMK AO2 SLP150
T01891050





000
SAUS46 KLOX 240949
MTRSDB
METAR KSDB 240948Z AUTO 19011KT 10SM CLR 19/M05 A3014 RMK AO2 SLP150
T01891050





000
SAUS46 KLOX 240948
MTRCQT
METAR KCQT 240947Z AUTO 00000KT 10SM CLR 17/14 A2995 RMK AO2 SLP140
T01720139





000
SAUS46 KLOX 240948
MTRCQT
METAR KCQT 240947Z AUTO 00000KT 10SM CLR 17/14 A2995 RMK AO2 SLP140
T01720139





000
SAUS46 KLOX 240936
MTRMWS
METAR KMWS 240930Z 23500G00KT MM/M02 RMK SNOW DEPTH 3.00





000
SAUS46 KLOX 240920
MTRSMX
SPECI KSMX 240918Z AUTO 00000KT 1/4SM R12/0700V0800FT FG VV002 12/11
A2998 RMK AO2 T01220106





000
SAUS46 KLOX 240915
MTRMWS
METAR KMWS 240900Z 16009G12KT 17/M03 RMK SNOW DEPTH 3.00





000
SAUS46 KLOX 240911
MTRSMX
SPECI KSMX 240910Z AUTO 00000KT 1/4SM R12/0700V0800FT FG VV001 12/10
A2998 RMK AO2 T01220100





000
SAUS46 KLOX 240904
MTRSMX
SPECI KSMX 240903Z AUTO 00000KT 3/4SM R12/0700V0800FT BR VV002 12/09
A2998 RMK AO2 T01170094





000
SAUS46 KLOX 240900
MTR9L2
METAR K9L2 240855Z AUTO 00000KT 10SM CLR 09/M08 A3003 RMK AO2 SLP162
T00891078 50002 TSNO $





000
SAUS46 KLOX 240855
MTRLAX
METAR KLAX 240853Z 00000KT 3SM BCFG BR FEW001 19/19 A2997 RMK AO2
SLP144 VIS W 1 N 3/4 T01890189 51004 $





000
SAUS46 KLOX 240854
MTRMWS
METAR KMWS 240845Z 16507G10KT 16/M07 RMK SNOW DEPTH 3.00





000
SAUS46 KLOX 240852
MTRSMX
METAR KSMX 240851Z AUTO 00000KT 10SM R12/1000V1200FT SCT002 11/08
A2998 RMK AO2 SLP155 T01060083 50002





000
SAUS46 KLOX 240849
MTRSDB
METAR KSDB 240848Z AUTO 19012KT 10SM CLR 18/M05 A3015 RMK AO2 SLP151
T01831050 58001





000
SAUS46 KLOX 240848
MTRCQT
METAR KCQT 240847Z AUTO 00000KT 10SM CLR 17/14 A2996 RMK AO2 SLP144
T01720139 51005





000
SAUS46 KLOX 240841
MTRSMX
SPECI KSMX 240839Z AUTO 00000KT 9SM R12/1200V1600FT SCT002 11/09
A2999 RMK AO2 T01110089





000
SAUS46 KLOX 240837
MTRSMX
SPECI KSMX 240835Z AUTO 00000KT 2 1/2SM R12/1000V1400FT BR BKN002
11/09 A2999 RMK AO2 T01110089





000
SAUS46 KLOX 240836
MTRMWS
METAR KMWS 240830Z 23500G00KT MM/M04 RMK SNOW DEPTH 3.00





000
SAUS46 KLOX 240834
MTRSMX
SPECI KSMX 240833Z AUTO 00000KT 1SM R12/0800V1400FT BR VV002 11/09
A2999 RMK AO2 T01110094





000
SAUS46 KLOX 240831
MTRSMX
SPECI KSMX 240830Z AUTO 00000KT 1/4SM R12/0700V1400FT FG VV002 11/10
A2999 RMK AO2 T01110100





000
SAUS46 KLOX 240821
MTRSMX
SPECI KSMX 240819Z AUTO 00000KT 1/4SM R12/0800V1200FT FG VV001 12/10
A2999 RMK AO2 T01170100





000
SAUS46 KLOX 240815
MTRMWS
METAR KMWS 240800Z 16508G13KT 17/M05 RMK SNOW DEPTH 3.00





000
SAUS46 KLOX 240815
MTRMWS
METAR KMWS 240800Z 16508G13KT 17/M05 RMK SNOW DEPTH 3.00





000
SAUS46 KLOX 240802
MTRSMX
SPECI KSMX 240800Z AUTO 00000KT 1/4SM R12/1400V2000FT FG VV002 12/11
A2999 RMK AO2 T01220106





000
SAUS46 KLOX 240759
MTR9L2
METAR K9L2 240755Z AUTO 00000KT 10SM CLR 10/M07 A3004 RMK AO2 SLP164
T01001072 402940056 TSNO $





000
SAUS46 KLOX 240754
MTRMWS
METAR KMWS 240745Z 17008G09KT 17/M07 RMK SNOW DEPTH 3.00





000
SAUS46 KLOX 240754
MTRLAX
METAR KLAX 240753Z 32003KT 10SM FEW005 19/19 A2997 RMK AO2 SLP145
T01940194 402500161 $





000
SAUS46 KLOX 240752
MTRSMX
METAR KSMX 240751Z AUTO 00000KT 3/4SM R12/1800V2200FT BR VV003 12/10
A2998 RMK AO2 SLP154 T01220100 402670111





000
SAUS46 KLOX 240750
MTRSMX
SPECI KSMX 240749Z AUTO 00000KT 1 1/4SM R12/1800V2200FT BR SCT003
12/10 A2998 RMK AO2





000
SAUS46 KLOX 240749
MTRSDB
METAR KSDB 240748Z AUTO 19013KT 10SM CLR 19/M06 A3015 RMK AO2 SLP153
T01891056 402830178





000
SAUS46 KLOX 240748
MTRCQT
METAR KCQT 240747Z AUTO 00000KT 10SM CLR 18/14 A2996 RMK AO2 SLP144
T01780144 402940156





000
SAUS46 KLOX 240748
MTRCQT
METAR KCQT 240747Z AUTO 00000KT 10SM CLR 18/14 A2996 RMK AO2 SLP144
T01780144 402940156





000
SAUS46 KLOX 240747
MTRSMX
SPECI KSMX 240746Z AUTO 00000KT 8SM R12/1800V2200FT FEW005 12/09
A2998 RMK AO2





000
SAUS46 KLOX 240736
MTRMWS
METAR KMWS 240730Z 23500G00KT MM/M08 RMK SNOW DEPTH 3.00





000
SAUS46 KLOX 240715
MTRMWS
METAR KMWS 240700Z 16508G10KT 17/M05 RMK SNOW DEPTH 3.00





000
SAUS46 KLOX 240700
MTR9L2
METAR K9L2 240655Z AUTO 20003KT 10SM CLR 12/M07 A3003 RMK AO2 SLP160
T01221067 TSNO $





000
SAUS46 KLOX 240654
MTRMWS
METAR KMWS 240645Z 15507G11KT 17/M10 RMK SNOW DEPTH 4.00





000
SAUS46 KLOX 240654
MTRLAX
METAR KLAX 240653Z 00000KT 10SM CLR 20/19 A2996 RMK AO2 SLP142
T02000189 $





000
SAUS46 KLOX 240653
MTRSMX
METAR KSMX 240651Z AUTO 9SM CLR 14/09 A2998 RMK AO2 SLP152 T01390094





000
SAUS46 KLOX 240649
MTRSDB
METAR KSDB 240648Z AUTO 19010KT 10SM CLR 19/M06 A3015 RMK AO2 SLP153
T01891061





000
SAUS46 KLOX 240648
MTRCQT
METAR KCQT 240647Z AUTO 00000KT 10SM CLR 19/15 A2996 RMK AO2 SLP141
T01890150





000
SAUS46 KLOX 240636
MTRMWS
METAR KMWS 240630Z 23500G00KT MM/M11 RMK SNOW DEPTH 3.00





000
SAUS46 KLOX 240615
MTRMWS
METAR KMWS 240600Z 13012G16KT 17/M11 RMK SNOW DEPTH 4.00





000
SAUS46 KLOX 240600
MTR9L2
METAR K9L2 240555Z AUTO 17003KT 10SM CLR 14/M06 A3003 RMK AO2 SLP163
T01391061 10294 20128 53015 TSNO $





000
SAUS46 KLOX 240554
MTRMWS
METAR KMWS 240545Z 12511G14KT 17/M06 RMK SNOW DEPTH 3.00





000
SAUS46 KLOX 240554
MTRLAX
METAR KLAX 240553Z VRB03KT 10SM CLR 20/18 A2995 RMK AO2 SLP141
T02000183 10233 20200 53009 $





000
SAUS46 KLOX 240553
MTRSMX
METAR KSMX 240551Z AUTO 16003KT 10SM CLR 14/09 A2998 RMK AO2 SLP152
T01440094 10228 20144 53009





000
SAUS46 KLOX 240549
MTRSDB
METAR KSDB 240548Z AUTO 20010G16KT 10SM CLR 18/01 A3015 RMK AO2
SLP155 T01830011 10250 20178 53006





000
SAUS46 KLOX 240548
MTRCQT
METAR KCQT 240547Z AUTO 00000KT 10SM CLR 19/16 A2995 RMK AO2 SLP139
T01940156 10261 20194 53009





000
SAUS46 KLOX 240548
MTRCQT
METAR KCQT 240547Z AUTO 00000KT 10SM CLR 19/16 A2995 RMK AO2 SLP139
T01940156 10261 20194 53009





000
SAUS46 KLOX 240536
MTRMWS
METAR KMWS 240530Z 23500G00KT MM/M04 RMK SNOW DEPTH 4.00





000
SAUS46 KLOX 240515
MTRMWS
METAR KMWS 240500Z 13011G14KT 17/M06 RMK SNOW DEPTH 4.00





000
SAUS46 KLOX 240457
MTR9L2
METAR K9L2 240455Z AUTO 18003KT 10SM CLR 16/M06 A3001 RMK AO2 SLP158
T01611061 TSNO $





000
SAUS46 KLOX 240457
MTR9L2
METAR K9L2 240455Z AUTO 18003KT 10SM CLR 16/M06 A3001 RMK AO2 SLP158
T01611061 TSNO $





000
SAUS46 KLOX 240454
MTRLAX
METAR KLAX 240453Z 00000KT 10SM CLR 21/19 A2994 RMK AO2 SLP137
T02060189 $





000
SAUS46 KLOX 240454
MTRMWS
METAR KMWS 240445Z 12510G15KT 17/M06 RMK SNOW DEPTH 4.00





000
SAUS46 KLOX 240454
MTRMWS
METAR KMWS 240445Z 12510G15KT 17/M06 RMK SNOW DEPTH 4.00





000
SAUS46 KLOX 240454
MTRLAX
METAR KLAX 240453Z 00000KT 10SM CLR 21/19 A2994 RMK AO2 SLP137
T02060189 $





000
SAUS46 KLOX 240452
MTRSMX
METAR KSMX 240451Z AUTO 00000KT 10SM CLR 16/12 A2997 RMK AO2 SLP149
T01610117





000
SAUS46 KLOX 240452
MTRSMX
METAR KSMX 240451Z AUTO 00000KT 10SM CLR 16/12 A2997 RMK AO2 SLP149
T01610117





000
SAUS46 KLOX 240449
MTRSDB
METAR KSDB 240448Z AUTO 20011KT 10SM CLR 18/02 A3014 RMK AO2 SLP154
T01830022





000
SAUS46 KLOX 240448
MTRCQT
METAR KCQT 240447Z AUTO 00000KT 10SM CLR 20/16 A2994 RMK AO2 SLP136
T02000156





000
SAUS46 KLOX 240436
MTRMWS
METAR KMWS 240430Z 23500G00KT MM/M06 RMK SNOW DEPTH 3.00





000
SAUS46 KLOX 240415
MTRMWS
METAR KMWS 240400Z 13010G15KT 17/M04 RMK SNOW DEPTH 4.00





000
SAUS46 KLOX 240358
MTR9L2
METAR K9L2 240355Z AUTO 15005KT 10SM CLR 19/M04 A3000 RMK AO2 SLP152
T01941044 TSNO $





000
SAUS46 KLOX 240358
MTR9L2
METAR K9L2 240355Z AUTO 15005KT 10SM CLR 19/M04 A3000 RMK AO2 SLP152
T01941044 TSNO $





000
SAUS46 KLOX 240354
MTRMWS
METAR KMWS 240345Z 14010G14KT 18/M06 RMK SNOW DEPTH 4.00





000
SAUS46 KLOX 240354
MTRLAX
METAR KLAX 240353Z 25003KT 10SM CLR 21/19 A2993 RMK AO2 SLP134
T02060189 $





000
SAUS46 KLOX 240354
MTRMWS
METAR KMWS 240345Z 14010G14KT 18/M06 RMK SNOW DEPTH 4.00





000
SAUS46 KLOX 240354
MTRLAX
METAR KLAX 240353Z 25003KT 10SM CLR 21/19 A2993 RMK AO2 SLP134
T02060189 $





000
SAUS46 KLOX 240352
MTRSMX
METAR KSMX 240351Z AUTO 10SM CLR 16/12 A2995 RMK AO2 SLP143
T01560117





000
SAUS46 KLOX 240352
MTRSMX
METAR KSMX 240351Z AUTO 10SM CLR 16/12 A2995 RMK AO2 SLP143
T01560117





000
SAUS46 KLOX 240349
MTRSDB
METAR KSDB 240348Z AUTO 20010KT 10SM CLR 18/02 A3013 RMK AO2 SLP154
T01830022





000
SAUS46 KLOX 240349
MTRSDB
METAR KSDB 240348Z AUTO 20010KT 10SM CLR 18/02 A3013 RMK AO2 SLP154
T01830022





000
SAUS46 KLOX 240348
MTRCQT
METAR KCQT 240347Z AUTO 00000KT 10SM CLR 21/14 A2993 RMK AO2 SLP133
T02060139





000
SAUS46 KLOX 240348
MTRCQT
METAR KCQT 240347Z AUTO 00000KT 10SM CLR 21/14 A2993 RMK AO2 SLP133
T02060139





000
SAUS46 KLOX 240336
MTRMWS
METAR KMWS 240330Z 23500G00KT MM/M14 RMK SNOW DEPTH 4.00





000
SAUS46 KLOX 240336
MTRMWS
METAR KMWS 240330Z 23500G00KT MM/M14 RMK SNOW DEPTH 4.00





000
SAUS46 KLOX 240315
MTRMWS
METAR KMWS 240300Z 14009G12KT 18/M15 RMK SNOW DEPTH 4.00





000
SAUS46 KLOX 240315
MTRMWS
METAR KMWS 240300Z 14009G12KT 18/M15 RMK SNOW DEPTH 4.00





000
SAUS46 KLOX 240257
MTR9L2
METAR K9L2 240255Z AUTO 26004KT 10SM CLR 23/M04 A2998 RMK AO2 SLP146
T02281044 53006 TSNO $





000
SAUS46 KLOX 240257
MTR9L2
METAR K9L2 240255Z AUTO 26004KT 10SM CLR 23/M04 A2998 RMK AO2 SLP146
T02281044 53006 TSNO $





000
SAUS46 KLOX 240254
MTRMWS
METAR KMWS 240245Z 13508G13KT 18/M14 RMK SNOW DEPTH 4.00





000
SAUS46 KLOX 240254
MTRMWS
METAR KMWS 240245Z 13508G13KT 18/M14 RMK SNOW DEPTH 4.00





000
SAUS46 KLOX 240254
MTRLAX
METAR KLAX 240253Z 25005KT 10SM CLR 21/18 A2993 RMK AO2 SLP133
T02060183 53004 $





000
SAUS46 KLOX 240254
MTRLAX
METAR KLAX 240253Z 25005KT 10SM CLR 21/18 A2993 RMK AO2 SLP133
T02060183 53004 $





000
SAUS46 KLOX 240253
MTRSMX
METAR KSMX 240251Z AUTO 00000KT 9SM CLR 18/14 A2995 RMK AO2 SLP144
T01780139 55001





000
SAUS46 KLOX 240253
MTRSMX
METAR KSMX 240251Z AUTO 00000KT 9SM CLR 18/14 A2995 RMK AO2 SLP144
T01780139 55001





000
SAUS46 KLOX 240249
MTRSDB
METAR KSDB 240248Z AUTO 19009KT 10SM CLR 19/02 A3013 RMK AO2 SLP154
T01940022 53002





000
SAUS46 KLOX 240249
MTRSDB
METAR KSDB 240248Z AUTO 19009KT 10SM CLR 19/02 A3013 RMK AO2 SLP154
T01940022 53002





000
SAUS46 KLOX 240248
MTRCQT
METAR KCQT 240247Z AUTO 00000KT 10SM CLR 22/14 A2992 RMK AO2 SLP131
T02170144 53007





000
SAUS46 KLOX 240248
MTRCQT
METAR KCQT 240247Z AUTO 00000KT 10SM CLR 22/14 A2992 RMK AO2 SLP131
T02170144 53007





000
SAUS46 KLOX 240236
MTRMWS
METAR KMWS 240230Z 23500G00KT MM/M12 RMK SNOW DEPTH 4.00





000
SAUS46 KLOX 240236
MTRMWS
METAR KMWS 240230Z 23500G00KT MM/M12 RMK SNOW DEPTH 4.00





000
SAUS46 KLOX 240215
MTRMWS
METAR KMWS 240200Z 13508G11KT 18/M11 RMK SNOW DEPTH 4.00





000
SAUS46 KLOX 240215
MTRMWS
METAR KMWS 240200Z 13508G11KT 18/M11 RMK SNOW DEPTH 4.00





000
SAUS46 KLOX 240200
MTR9L2
METAR K9L2 240155Z AUTO 24010KT 10SM CLR 24/M05 A2997 RMK AO2 SLP145
T02441050 TSNO $





000
SAUS46 KLOX 240200
MTR9L2
METAR K9L2 240155Z AUTO 24010KT 10SM CLR 24/M05 A2997 RMK AO2 SLP145
T02441050 TSNO $





000
SAUS46 KLOX 240154
MTRLAX
METAR KLAX 240153Z 26005KT 10SM CLR 21/17 A2992 RMK AO2 SLP130
T02110172 $





000
SAUS46 KLOX 240154
MTRMWS
METAR KMWS 240145Z 15507G11KT 18/M10 RMK SNOW DEPTH 4.00





000
SAUS46 KLOX 240154
MTRMWS
METAR KMWS 240145Z 15507G11KT 18/M10 RMK SNOW DEPTH 4.00





000
SAUS46 KLOX 240154
MTRLAX
METAR KLAX 240153Z 26005KT 10SM CLR 21/17 A2992 RMK AO2 SLP130
T02110172 $





000
SAUS46 KLOX 240152
MTRSMX
METAR KSMX 240151Z 35005KT 10SM CLR 18/13 A2994 RMK AO2 SLP142
T01830133





000
SAUS46 KLOX 240152
MTRSMX
METAR KSMX 240151Z 35005KT 10SM CLR 18/13 A2994 RMK AO2 SLP142
T01830133





000
SAUS46 KLOX 240149
MTRCQT
METAR KCQT 240147Z AUTO 00000KT 10SM CLR 23/14 A2991 RMK AO2 SLP127
T02280139





000
SAUS46 KLOX 240149
MTRSDB
METAR KSDB 240148Z AUTO 18010KT 10SM CLR 21/02 A3013 RMK AO2 SLP152
T02060017





000
SAUS46 KLOX 240149
MTRSDB
METAR KSDB 240148Z AUTO 18010KT 10SM CLR 21/02 A3013 RMK AO2 SLP152
T02060017





000
SAUS46 KLOX 240149
MTRCQT
METAR KCQT 240147Z AUTO 00000KT 10SM CLR 23/14 A2991 RMK AO2 SLP127
T02280139





000
SAUS46 KLOX 240136
MTRMWS
METAR KMWS 240130Z 23500G00KT MM/M06 RMK SNOW DEPTH 4.00





000
SAUS46 KLOX 240115
MTRMWS
METAR KMWS 240100Z 19002G05KT 21/M04 RMK SNOW DEPTH 4.00





000
SAUS46 KLOX 240058
MTR9L2
METAR K9L2 240055Z AUTO 24008KT 10SM CLR 27/M05 A2997 RMK AO2 SLP141
T02721050 TSNO $





000
SAUS46 KLOX 240054
MTRMWS
METAR KMWS 240045Z 23003G05KT 22/M04 RMK SNOW DEPTH 4.00





000
SAUS46 KLOX 240054
MTRLAX
METAR KLAX 240053Z 26007KT 10SM CLR 22/17 A2991 RMK AO2 SLP128
T02220172 $





000
SAUS46 KLOX 240053
MTRSMX
METAR KSMX 240051Z AUTO 33006KT 10SM CLR 21/14 A2994 RMK AO2 SLP141
T02060139





000
SAUS46 KLOX 240049
MTRSDB
METAR KSDB 240048Z AUTO 19013KT 10SM CLR 23/00 A3012 RMK AO2 SLP148
T02280000





000
SAUS46 KLOX 240048
MTRCQT
METAR KCQT 240047Z AUTO 27003KT 10SM CLR 25/14 A2990 RMK AO2 SLP123
T02500144





000
SAUS46 KLOX 240036
MTRMWS
METAR KMWS 240030Z 23500G00KT MM/M03 RMK SNOW DEPTH 4.00





000
SAUS46 KLOX 240015
MTRMWS
METAR KMWS 240000Z 13501G03KT 23/M02 RMK SNOW DEPTH 4.00





000
SAUS46 KLOX 232358
MTR9L2
METAR K9L2 232355Z AUTO 18006KT 10SM CLR 29/M04 A2996 RMK AO2 SLP136
T02941039 10294 20183 56011 TSNO $





000
SAUS46 KLOX 232354
MTRMWS
METAR KMWS 232345Z 21504G06KT 22/02 RMK SNOW DEPTH 4.00





000
SAUS46 KLOX 232354
MTRLAX
METAR KLAX 232353Z 26008KT 10SM CLR 23/16 A2991 RMK AO2 SLP128
T02330156 10250 20228 56012 $





000
SAUS46 KLOX 232352
MTRSMX
METAR KSMX 232351Z AUTO 32007KT 10SM CLR 23/13 A2995 RMK AO2 SLP144
T02280133 10267 20228 56008





000
SAUS46 KLOX 232349
MTRCQT
METAR KCQT 232347Z AUTO 27004KT 10SM CLR 26/13 A2990 RMK AO2 SLP123
T02610133 10294 20256 56009





000
SAUS46 KLOX 232349
MTRSDB
METAR KSDB 232348Z AUTO 18012G20KT 10SM CLR 25/M03 A3012 RMK AO2
SLP145 T02501028 10283 20250 56006





000
SAUS46 KLOX 232336
MTRMWS
METAR KMWS 232330Z 23500G00KT MM/00 RMK SNOW DEPTH 4.00





000
SAUS46 KLOX 232315
MTRMWS
METAR KMWS 232300Z 21003G04KT 22/03 RMK SNOW DEPTH 4.00





000
SAUS46 KLOX 232258
MTR9L2
METAR K9L2 232255Z AUTO 16006KT 10SM CLR 29/M04 A2997 RMK AO2 SLP138
T02891039 TSNO $





000
SAUS46 KLOX 232254
MTRMWS
METAR KMWS 232245Z 23004G06KT 22/04 RMK SNOW DEPTH 4.00





000
SAUS46 KLOX 232254
MTRLAX
METAR KLAX 232253Z 26009KT 10SM CLR 23/17 A2992 RMK AO2 SLP132
T02280167 $





000
SAUS46 KLOX 232252
MTRSMX
METAR KSMX 232251Z AUTO 32010KT 10SM CLR 23/13 A2996 RMK AO2 SLP146
T02330128





000
SAUS46 KLOX 232249
MTRSDB
METAR KSDB 232248Z AUTO 18012G19KT 10SM CLR 26/M04 A3013 RMK AO2
SLP144 T02561039





000
SAUS46 KLOX 232249
MTRCQT
METAR KCQT 232247Z AUTO 00000KT 10SM CLR 27/12 A2991 RMK AO2 SLP125
T02720122





000
SAUS46 KLOX 232236
MTRMWS
METAR KMWS 232230Z 23500G00KT MM/04 RMK SNOW DEPTH 4.00





000
SAUS46 KLOX 232215
MTRMWS
METAR KMWS 232200Z 19505G07KT 23/04 RMK SNOW DEPTH 4.00





000
SAUS46 KLOX 232158
MTR9L2
METAR K9L2 232155Z AUTO 13004KT 10SM CLR 29/M03 A2998 RMK AO2 SLP140
T02891033 TSNO $





000
SAUS46 KLOX 232154
MTRLAX
METAR KLAX 232153Z 27008KT 10SM CLR 24/17 A2993 RMK AO2 SLP132
T02390167 $





000
SAUS46 KLOX 232154
MTRMWS
METAR KMWS 232145Z 23504G05KT 26/05 RMK SNOW DEPTH 5.00





000
SAUS46 KLOX 232154
MTRMWS
METAR KMWS 232145Z 23504G05KT 26/05 RMK SNOW DEPTH 5.00





000
SAUS46 KLOX 232154
MTRLAX
METAR KLAX 232153Z 27008KT 10SM CLR 24/17 A2993 RMK AO2 SLP132
T02390167 $





000
SAUS46 KLOX 232153
MTRSMX
METAR KSMX 232151Z 29010KT 10SM CLR 24/12 A2996 RMK AO2 SLP147
T02440117





000
SAUS46 KLOX 232153
MTRSMX
METAR KSMX 232151Z 29010KT 10SM CLR 24/12 A2996 RMK AO2 SLP147
T02440117





000
SAUS46 KLOX 232149
MTRSDB
METAR KSDB 232148Z AUTO 17015G21KT 10SM CLR 27/M06 A3013 RMK AO2
SLP143 T02721056





000
SAUS46 KLOX 232149
MTRSDB
METAR KSDB 232148Z AUTO 17015G21KT 10SM CLR 27/M06 A3013 RMK AO2
SLP143 T02721056





000
SAUS46 KLOX 232148
MTRCQT
METAR KCQT 232147Z AUTO 00000KT 10SM CLR 29/12 A2991 RMK AO2 SLP126
T02890117





000
SAUS46 KLOX 232148
MTRCQT
METAR KCQT 232147Z AUTO 00000KT 10SM CLR 29/12 A2991 RMK AO2 SLP126
T02890117





000
SAUS46 KLOX 232136
MTRMWS
METAR KMWS 232130Z 23500G00KT MM/02 RMK SNOW DEPTH 5.00





000
SAUS46 KLOX 232115
MTRMWS
METAR KMWS 232100Z 20005G06KT 25/02 RMK SNOW DEPTH 5.00





000
SAUS46 KLOX 232058
MTR9L2
METAR K9L2 232055Z AUTO 00000KT 10SM CLR 27/M03 A3000 RMK AO2 SLP148
T02671028 58028 TSNO $





000
SAUS46 KLOX 232054
MTRLAX
METAR KLAX 232053Z 28008KT 10SM FEW180 SCT250 24/17 A2995 RMK AO2
SLP139 T02440172 58018 $





000
SAUS46 KLOX 232054
MTRMWS
METAR KMWS 232045Z 20505G07KT 26/01 RMK SNOW DEPTH 4.00





000
SAUS46 KLOX 232053
MTRSMX
METAR KSMX 232051Z 30009KT 10SM CLR 26/11 A2998 RMK AO2 SLP151
T02560111 58017





000
SAUS46 KLOX 232049
MTRSDB
METAR KSDB 232048Z AUTO 17014G20KT 10SM CLR 28/M05 A3015 RMK AO2
SLP148 T02781050 58015





000
SAUS46 KLOX 232048
MTRCQT
METAR KCQT 232047Z AUTO VRB03KT 10SM CLR 29/13 A2993 RMK AO2 SLP132
T02890133 58019





000
SAUS46 KLOX 232036
MTRMWS
METAR KMWS 232030Z 23500G00KT MM/01 RMK SNOW DEPTH 5.00





000
SAUS46 KLOX 232015
MTRMWS
METAR KMWS 232000Z 23005G07KT 25/00 RMK SNOW DEPTH 5.00





000
SAUS46 KLOX 231957
MTR9L2
METAR K9L2 231955Z AUTO 00000KT 10SM CLR 24/M02 A3003 RMK AO2 SLP162
T02441017 TSNO $





000
SAUS46 KLOX 231957
MTR9L2
METAR K9L2 231955Z AUTO 00000KT 10SM CLR 24/M02 A3003 RMK AO2 SLP162
T02441017 TSNO $





000
SAUS46 KLOX 231954
MTRMWS
METAR KMWS 231945Z 21505G07KT 25/00 RMK SNOW DEPTH 5.00





000
SAUS46 KLOX 231954
MTRLAX
METAR KLAX 231953Z 28008KT 10SM FEW180 SCT250 24/15 A2997 RMK AO2
SLP147 T02440150 $





000
SAUS46 KLOX 231954
MTRLAX
METAR KLAX 231953Z 28008KT 10SM FEW180 SCT250 24/15 A2997 RMK AO2
SLP147 T02440150 $





000
SAUS46 KLOX 231954
MTRMWS
METAR KMWS 231945Z 21505G07KT 25/00 RMK SNOW DEPTH 5.00





000
SAUS46 KLOX 231952
MTRSMX
METAR KSMX 231951Z 30009KT 10SM CLR 27/10 A3000 RMK AO2 SLP157
T02670100





000
SAUS46 KLOX 231952
MTRSMX
METAR KSMX 231951Z 30009KT 10SM CLR 27/10 A3000 RMK AO2 SLP157
T02670100





000
SAUS46 KLOX 231949
MTRSDB
METAR KSDB 231948Z AUTO 17013G18KT 10SM CLR 28/M06 A3017 RMK AO2
SLP158 T02781061





000
SAUS46 KLOX 231949
MTRSDB
METAR KSDB 231948Z AUTO 17013G18KT 10SM CLR 28/M06 A3017 RMK AO2
SLP158 T02781061





000
SAUS46 KLOX 231948
MTRCQT
METAR KCQT 231947Z AUTO 00000KT 7SM CLR 28/13 A2995 RMK AO2 SLP140
T02830128





000
SAUS46 KLOX 231948
MTRCQT
METAR KCQT 231947Z AUTO 00000KT 7SM CLR 28/13 A2995 RMK AO2 SLP140
T02830128





000
SAUS46 KLOX 231936
MTRMWS
METAR KMWS 231930Z 23500G00KT MM/M01 RMK SNOW DEPTH 4.00





000
SAUS46 KLOX 231936
MTRMWS
METAR KMWS 231930Z 23500G00KT MM/M01 RMK SNOW DEPTH 4.00





000
SAUS46 KLOX 231915
MTRMWS
METAR KMWS 231900Z 23504G08KT 25/M02 RMK SNOW DEPTH 5.00





000
SAUS46 KLOX 231915
MTRMWS
METAR KMWS 231900Z 23504G08KT 25/M02 RMK SNOW DEPTH 5.00





000
SAUS46 KLOX 231859
MTR9L2
METAR K9L2 231855Z AUTO 00000KT 10SM CLR 22/M02 A3006 RMK AO2 SLP173
T02171017 TSNO $





000
SAUS46 KLOX 231859
MTR9L2
METAR K9L2 231855Z AUTO 00000KT 10SM CLR 22/M02 A3006 RMK AO2 SLP173
T02171017 TSNO $





000
SAUS46 KLOX 231854
MTRMWS
METAR KMWS 231845Z 24004G07KT 25/M03 RMK SNOW DEPTH 4.00





000
SAUS46 KLOX 231854
MTRMWS
METAR KMWS 231845Z 24004G07KT 25/M03 RMK SNOW DEPTH 4.00





000
SAUS46 KLOX 231854
MTRLAX
METAR KLAX 231853Z 27007KT 9SM FEW180 SCT250 24/16 A2999 RMK AO2
SLP155 T02390161 $





000
SAUS46 KLOX 231854
MTRLAX
METAR KLAX 231853Z 27007KT 9SM FEW180 SCT250 24/16 A2999 RMK AO2
SLP155 T02390161 $





000
SAUS46 KLOX 231853
MTRSMX
METAR KSMX 231851Z 28004KT 10SM FEW250 26/06 A3002 RMK AO2 SLP164
T02560061





000
SAUS46 KLOX 231853
MTRSMX
METAR KSMX 231851Z 28004KT 10SM FEW250 26/06 A3002 RMK AO2 SLP164
T02560061





000
SAUS46 KLOX 231849
MTRSDB
METAR KSDB 231848Z AUTO 18013KT 10SM CLR 27/M07 A3018 RMK AO2 SLP163
T02721067





000
SAUS46 KLOX 231849
MTRSDB
METAR KSDB 231848Z AUTO 18013KT 10SM CLR 27/M07 A3018 RMK AO2 SLP163
T02721067





000
SAUS46 KLOX 231848
MTRCQT
METAR KCQT 231847Z AUTO 00000KT 5SM HZ CLR 28/12 A2998 RMK AO2
SLP148 T02830122





000
SAUS46 KLOX 231848
MTRCQT
METAR KCQT 231847Z AUTO 00000KT 5SM HZ CLR 28/12 A2998 RMK AO2
SLP148 T02830122





000
SAUS46 KLOX 231836
MTRMWS
METAR KMWS 231830Z 23500G00KT MM/M01 RMK SNOW DEPTH 4.00





000
SAUS46 KLOX 231836
MTRMWS
METAR KMWS 231830Z 23500G00KT MM/M01 RMK SNOW DEPTH 4.00





000
SAUS46 KLOX 231815
MTRMWS
METAR KMWS 231800Z 24002G03KT 25/M03 RMK SNOW DEPTH 4.00





000
SAUS46 KLOX 231815
MTRMWS
METAR KMWS 231800Z 24002G03KT 25/M03 RMK SNOW DEPTH 4.00





000
SAUS46 KLOX 231800
MTR9L2
METAR K9L2 231755Z AUTO 00000KT 10SM CLR 18/M02 A3008 RMK AO2 SLP182
T01831022 10183 20056 50005 $





000
SAUS46 KLOX 231800
MTR9L2
METAR K9L2 231755Z AUTO 00000KT 10SM CLR 18/M02 A3008 RMK AO2 SLP182
T01831022 10183 20056 50005 $





000
SAUS46 KLOX 231754
MTRLAX
METAR KLAX 231753Z 24005KT 8SM FEW180 SCT250 23/15 A3000 RMK AO2
SLP157 T02330150 10233 20161 50011 $





000
SAUS46 KLOX 231754
MTRMWS
METAR KMWS 231745Z 24502G03KT 25/M03 RMK SNOW DEPTH 4.00





000
SAUS46 KLOX 231754
MTRLAX
METAR KLAX 231753Z 24005KT 8SM FEW180 SCT250 23/15 A3000 RMK AO2
SLP157 T02330150 10233 20161 50011 $





000
SAUS46 KLOX 231754
MTRMWS
METAR KMWS 231745Z 24502G03KT 25/M03 RMK SNOW DEPTH 4.00





000
SAUS46 KLOX 231753
MTRSMX
METAR KSMX 231751Z 00000KT 10SM FEW250 23/06 A3003 RMK AO2 SLP168
T02330056 10233 20111 50009





000
SAUS46 KLOX 231753
MTRSMX
METAR KSMX 231751Z 00000KT 10SM FEW250 23/06 A3003 RMK AO2 SLP168
T02330056 10233 20111 50009





000
SAUS46 KLOX 231749
MTRSDB
METAR KSDB 231748Z AUTO 18007G17KT 10SM CLR 26/M10 A3019 RMK AO2
SLP170 T02561100 10256 20189 51011





000
SAUS46 KLOX 231749
MTRSDB
METAR KSDB 231748Z AUTO 18007G17KT 10SM CLR 26/M10 A3019 RMK AO2
SLP170 T02561100 10256 20189 51011





000
SAUS46 KLOX 231748
MTRCQT
METAR KCQT 231747Z AUTO 00000KT 6SM HZ CLR 26/12 A2999 RMK AO2
SLP152 T02560122 10256 20156 50009





000
SAUS46 KLOX 231748
MTRCQT
METAR KCQT 231747Z AUTO 00000KT 6SM HZ CLR 26/12 A2999 RMK AO2
SLP152 T02560122 10256 20156 50009





000
SAUS46 KLOX 231736
MTRMWS
METAR KMWS 231730Z 23500G00KT MM/M04 RMK SNOW DEPTH 4.00





000
SAUS46 KLOX 231715
MTRMWS
METAR KMWS 231700Z 25002G03KT 23/M07 RMK SNOW DEPTH 4.00





000
SAUS46 KLOX 231715
MTRMWS
METAR KMWS 231700Z 25002G03KT 23/M07 RMK SNOW DEPTH 4.00





000
SAUS46 KLOX 231657
MTR9L2
METAR K9L2 231655Z AUTO 00000KT 10SM CLR 14/M03 A3009 RMK AO2 SLP185
T01391033 $





000
SAUS46 KLOX 231657
MTR9L2
METAR K9L2 231655Z AUTO 00000KT 10SM CLR 14/M03 A3009 RMK AO2 SLP185
T01391033 $





000
SAUS46 KLOX 231654
MTRMWS
METAR KMWS 231645Z 16501G03KT 23/M06 RMK SNOW DEPTH 4.00





000
SAUS46 KLOX 231654
MTRLAX
METAR KLAX 231653Z 00000KT 8SM FEW180 SCT250 23/14 A3000 RMK AO2
SLP157 T02280139 $





000
SAUS46 KLOX 231654
MTRMWS
METAR KMWS 231645Z 16501G03KT 23/M06 RMK SNOW DEPTH 4.00





000
SAUS46 KLOX 231654
MTRLAX
METAR KLAX 231653Z 00000KT 8SM FEW180 SCT250 23/14 A3000 RMK AO2
SLP157 T02280139 $





000
SAUS46 KLOX 231653
MTRSMX
METAR KSMX 231651Z 00000KT 10SM CLR 20/08 A3004 RMK AO2 SLP172
T02000083





000
SAUS46 KLOX 231653
MTRSMX
METAR KSMX 231651Z 00000KT 10SM CLR 20/08 A3004 RMK AO2 SLP172
T02000083





000
SAUS46 KLOX 231650
MTRSDB
METAR KSDB 231648Z AUTO 17011KT 10SM CLR 24/M08 A3019 RMK AO2 SLP170
T02391078





000
SAUS46 KLOX 231650
MTRSDB
METAR KSDB 231648Z AUTO 17011KT 10SM CLR 24/M08 A3019 RMK AO2 SLP170
T02391078





000
SAUS46 KLOX 231648
MTRCQT
METAR KCQT 231647Z AUTO 00000KT 8SM CLR 23/11 A2999 RMK AO2 SLP153
T02330111





000
SAUS46 KLOX 231648
MTRCQT
METAR KCQT 231647Z AUTO 00000KT 8SM CLR 23/11 A2999 RMK AO2 SLP153
T02330111





000
SAUS46 KLOX 231636
MTRMWS
METAR KMWS 231630Z 23500G00KT MM/M08 RMK SNOW DEPTH 4.00





000
SAUS46 KLOX 231636
MTRMWS
METAR KMWS 231630Z 23500G00KT MM/M08 RMK SNOW DEPTH 4.00





000
SAUS46 KLOX 231615
MTRMWS
METAR KMWS 231600Z 10003G04KT 21/M06 RMK SNOW DEPTH 4.00





000
SAUS46 KLOX 231615
MTRMWS
METAR KMWS 231600Z 10003G04KT 21/M06 RMK SNOW DEPTH 4.00





000
SAUS46 KLOX 231557
MTR9L2
METAR K9L2 231555Z AUTO 00000KT 10SM CLR 11/M04 A3009 RMK AO2 SLP187
T01111039 TSNO $





000
SAUS46 KLOX 231554
MTRLAX
METAR KLAX 231553Z 00000KT 10SM FEW180 SCT250 21/13 A2999 RMK AO2
SLP153 T02060128 $





000
SAUS46 KLOX 231554
MTRMWS
METAR KMWS 231545Z 09503G05KT 21/M07 RMK SNOW DEPTH 4.00





000
SAUS46 KLOX 231552
MTRSMX
METAR KSMX 231551Z 25003KT 10SM CLR 16/09 A3003 RMK AO2 SLP171
T01610094





000
SAUS46 KLOX 231549
MTRSDB
METAR KSDB 231548Z AUTO 18007KT 10SM CLR 22/M04 A3018 RMK AO2 SLP169
T02171039





000
SAUS46 KLOX 231548
MTRCQT
METAR KCQT 231547Z AUTO 00000KT 10SM CLR 19/12 A2999 RMK AO2 SLP152
T01940117





000
SAUS46 KLOX 231548
MTRCQT
METAR KCQT 231547Z AUTO 00000KT 10SM CLR 19/12 A2999 RMK AO2 SLP152
T01940117





000
SAUS46 KLOX 231536
MTRMWS
METAR KMWS 231530Z 23500G00KT MM/M09 RMK SNOW DEPTH 4.00





000
SAUS46 KLOX 231515
MTRMWS
METAR KMWS 231500Z 10005G07KT 18/M11 RMK SNOW DEPTH 4.00





000
SAUS46 KLOX 231457
MTR9L2
METAR K9L2 231455Z AUTO 00000KT 10SM CLR 09/M04 A3007 RMK AO2 SLP178
T00941039 53011 TSNO $





000
SAUS46 KLOX 231457
MTR9L2
METAR K9L2 231455Z AUTO 00000KT 10SM CLR 09/M04 A3007 RMK AO2 SLP178
T00941039 53011 TSNO $





000
SAUS46 KLOX 231454
MTRLAX
METAR KLAX 231453Z VRB03KT 10SM FEW180 SCT250 18/13 A2997 RMK AO2
SLP146 T01830128 53012 $





000
SAUS46 KLOX 231454
MTRLAX
METAR KLAX 231453Z VRB03KT 10SM FEW180 SCT250 18/13 A2997 RMK AO2
SLP146 T01830128 53012 $





000
SAUS46 KLOX 231453
MTRSMX
METAR KSMX 231451Z 09004KT 10SM CLR 13/08 A3000 RMK AO2 SLP161
T01280083 51014





000
SAUS46 KLOX 231453
MTRSMX
METAR KSMX 231451Z 09004KT 10SM CLR 13/08 A3000 RMK AO2 SLP161
T01280083 51014





000
SAUS46 KLOX 231449
MTRSDB
METAR KSDB 231448Z AUTO 18005KT 10SM CLR 19/M03 A3016 RMK AO2 SLP162
T01941028 53008





000
SAUS46 KLOX 231449
MTRSDB
METAR KSDB 231448Z AUTO 18005KT 10SM CLR 19/M03 A3016 RMK AO2 SLP162
T01941028 53008





000
SAUS46 KLOX 231448
MTRCQT
METAR KCQT 231447Z AUTO 00000KT 10SM CLR 17/11 A2996 RMK AO2 SLP144
T01720111 53011





000
SAUS46 KLOX 231448
MTRCQT
METAR KCQT 231447Z AUTO 00000KT 10SM CLR 17/11 A2996 RMK AO2 SLP144
T01720111 53011





000
SAUS46 KLOX 231436
MTRMWS
METAR KMWS 231430Z 23500G00KT MM/M12 RMK SNOW DEPTH 4.00





000
SAUS46 KLOX 231436
MTRMWS
METAR KMWS 231430Z 23500G00KT MM/M12 RMK SNOW DEPTH 4.00





000
SAUS46 KLOX 231415
MTRMWS
METAR KMWS 231400Z 13006G08KT 16/M12 RMK SNOW DEPTH 3.00





000
SAUS46 KLOX 231400
MTR9L2
METAR K9L2 231355Z AUTO 31003KT 10SM CLR 06/M06 A3005 RMK AO2 SLP173
T00611056 TSNO $





000
SAUS46 KLOX 231354
MTRMWS
METAR KMWS 231345Z 13005G05KT 16/M11 RMK SNOW DEPTH 3.00





000
SAUS46 KLOX 231354
MTRLAX
METAR KLAX 231353Z 00000KT 10SM FEW250 17/14 A2995 RMK AO2 SLP140
T01720139





000
SAUS46 KLOX 231353
MTRSMX
METAR KSMX 231351Z 17005KT 10SM CLR 11/07 A2999 RMK AO2 SLP156
T01110072





000
SAUS46 KLOX 231349
MTRSDB
METAR KSDB 231348Z AUTO 18005KT 10SM CLR 19/M03 A3014 RMK AO2 SLP158
T01941028





000
SAUS46 KLOX 231348
MTRCQT
METAR KCQT 231347Z AUTO 00000KT 10SM CLR 16/11 A2995 RMK AO2 SLP139
T01610111





000
SAUS46 KLOX 231336
MTRMWS
METAR KMWS 231330Z 23500G00KT MM/M11 RMK SNOW DEPTH 4.00





000
SAUS46 KLOX 231315
MTRMWS
METAR KMWS 231300Z 13004G06KT 16/M12 RMK SNOW DEPTH 3.00





000
SAUS46 KLOX 231259
MTR9L2
METAR K9L2 231255Z AUTO 00000KT 10SM CLR 06/M06 A3004 RMK AO2 SLP167
T00611056 TSNO $





000
SAUS46 KLOX 231255
MTRLAX
METAR KLAX 231253Z 00000KT 10SM CLR 17/14 A2994 RMK AO2 SLP138
T01720139





000
SAUS46 KLOX 231254
MTRMWS
METAR KMWS 231245Z 13504G05KT 16/M12 RMK SNOW DEPTH 3.00





000
SAUS46 KLOX 231252
MTRSMX
METAR KSMX 231251Z AUTO 14003KT 10SM CLR 11/08 A2998 RMK AO2 SLP153
T01110078





000
SAUS46 KLOX 231250
MTRSDB
METAR KSDB 231248Z AUTO 19006KT 10SM CLR 19/M01 A3013 RMK AO2 SLP152
T01891011





000
SAUS46 KLOX 231250
MTRLAX
METAR KLAX 231153Z COR 00000KT 10SM CLR 17/16 A2994 RMK AO2 SLP134
T01670161 10200 20161 55007





000
SAUS46 KLOX 231248
MTRCQT
METAR KCQT 231247Z AUTO 00000KT 10SM CLR 16/12 A2994 RMK AO2 SLP136
T01610117





000
SAUS46 KLOX 231236
MTRMWS
METAR KMWS 231230Z 23500G00KT MM/M11 RMK SNOW DEPTH 3.00





000
SAUS46 KLOX 231215
MTRMWS
METAR KMWS 231200Z  0502G03KT 15/M11 RMK SNOW DEPTH 3.00





000
SAUS46 KLOX 231157
MTR9L2
METAR K9L2 231155Z AUTO 00000KT 10SM CLR 07/M06 A3003 RMK AO2 SLP163
T00721061 10139 20072 55002 TSNO $





000
SAUS46 KLOX 231154
MTRMWS
METAR KMWS 231145Z 23001G03KT 16/M10 RMK SNOW DEPTH 3.00





000
SAUS46 KLOX 231154
MTRLAX
METAR KLAX 231153Z 00000KT 10SM CLR 17/16 A2994 RMK AO2 SLP134 7////
T01670161 10200 20161 55007





000
SAUS46 KLOX 231152
MTRSMX
METAR KSMX 231151Z AUTO 10SM CLR 12/08 A2996 RMK AO2 SLP146
T01220083 10156 20122 55007





000
SAUS46 KLOX 231149
MTRSDB
METAR KSDB 231148Z AUTO 18006KT 10SM CLR 19/M08 A3013 RMK AO2 SLP148
T01941078 10200 20178 55007





000
SAUS46 KLOX 231148
MTRCQT
METAR KCQT 231147Z AUTO 00000KT 10SM CLR 16/13 A2993 RMK AO2 SLP132
T01610128 10194 20161 55009





000
SAUS46 KLOX 231136
MTRMWS
METAR KMWS 231130Z 23500G00KT MM/M11 RMK SNOW DEPTH 3.00





000
SAUS46 KLOX 231115
MTRMWS
METAR KMWS 231100Z 18002G05KT 15/M12 RMK SNOW DEPTH 3.00





000
SAUS46 KLOX 231057
MTR9L2
METAR K9L2 231055Z AUTO 01003KT 10SM CLR 08/M06 A3003 RMK AO2 SLP162
T00781061 TSNO $





000
SAUS46 KLOX 231054
MTRMWS
METAR KMWS 231045Z 10501G05KT 15/M12 RMK SNOW DEPTH 3.00





000
SAUS46 KLOX 231054
MTRLAX
METAR KLAX 231053Z 00000KT 10SM CLR 17/16 A2993 RMK AO2 SLP133
T01670161





000
SAUS46 KLOX 231053
MTRSMX
METAR KSMX 231051Z AUTO 14004KT 10SM CLR 12/08 A2995 RMK AO2 SLP144
T01220083





000
SAUS46 KLOX 231049
MTRSDB
METAR KSDB 231048Z AUTO VRB03KT 10SM CLR 19/M04 A3013 RMK AO2 SLP147
T01941039





000
SAUS46 KLOX 231048
MTRCQT
METAR KCQT 231047Z AUTO 00000KT 10SM CLR 17/14 A2993 RMK AO2 SLP131
T01670139





000
SAUS46 KLOX 231036
MTRMWS
METAR KMWS 231030Z 23500G00KT MM/M11 RMK SNOW DEPTH 3.00





000
SAUS46 KLOX 231015
MTRMWS
METAR KMWS 231000Z 15005G08KT 16/M11 RMK SNOW DEPTH 3.00





000
SAUS46 KLOX 230957
MTRMWS
METAR KMWS 230945Z 16502G05KT 16/M11 RMK SNOW DEPTH 3.00





000
SAUS46 KLOX 230957
MTRMWS
METAR KMWS 230945Z 16502G05KT 16/M11 RMK SNOW DEPTH 3.00





000
SAUS46 KLOX 230957
MTR9L2
METAR K9L2 230955Z AUTO 00000KT 10SM CLR 08/M06 A3004 RMK AO2 SLP165
T00831061 TSNO $





000
SAUS46 KLOX 230957
MTR9L2
METAR K9L2 230955Z AUTO 00000KT 10SM CLR 08/M06 A3004 RMK AO2 SLP165
T00831061 TSNO $





000
SAUS46 KLOX 230955
MTRLAX
METAR KLAX 230953Z 10003KT 10SM CLR 17/17 A2994 RMK AO2 SLP137
T01670167





000
SAUS46 KLOX 230955
MTRLAX
METAR KLAX 230953Z 10003KT 10SM CLR 17/17 A2994 RMK AO2 SLP137
T01670167





000
SAUS46 KLOX 230954
MTRSMX
METAR KSMX 230951Z AUTO 13003KT 10SM CLR 13/08 A2997 RMK AO2 SLP149
T01280083





000
SAUS46 KLOX 230954
MTRSMX
METAR KSMX 230951Z AUTO 13003KT 10SM CLR 13/08 A2997 RMK AO2 SLP149
T01280083





000
SAUS46 KLOX 230949
MTRSDB
METAR KSDB 230948Z AUTO 20004KT 10SM CLR 19/M03 A3015 RMK AO2 SLP153
T01941028





000
SAUS46 KLOX 230949
MTRSDB
METAR KSDB 230948Z AUTO 20004KT 10SM CLR 19/M03 A3015 RMK AO2 SLP153
T01941028





000
SAUS46 KLOX 230948
MTRCQT
METAR KCQT 230947Z AUTO 00000KT 9SM CLR 17/15 A2994 RMK AO2 SLP136
T01720150





000
SAUS46 KLOX 230948
MTRCQT
METAR KCQT 230947Z AUTO 00000KT 9SM CLR 17/15 A2994 RMK AO2 SLP136
T01720150





000
SAUS46 KLOX 230936
MTRMWS
METAR KMWS 230930Z 23500G00KT MM/M11 RMK SNOW DEPTH 3.00





000
SAUS46 KLOX 230915
MTRMWS
METAR KMWS 230900Z 14008G09KT 17/M11 RMK SNOW DEPTH 3.00





000
SAUS46 KLOX 230857
MTR9L2
METAR K9L2 230855Z AUTO 00000KT 10SM CLR 10/M05 A3004 RMK AO2 SLP165
T01001050 58001 TSNO $





000
SAUS46 KLOX 230855
MTRLAX
METAR KLAX 230853Z 00000KT 10SM FEW250 18/17 A2996 RMK AO2 SLP141
T01780172 58001





000
SAUS46 KLOX 230854
MTRMWS
METAR KMWS 230845Z 12508G09KT 17/M10 RMK SNOW DEPTH 3.00





000
SAUS46 KLOX 230852
MTRSMX
METAR KSMX 230851Z AUTO 14003KT 10SM CLR 13/09 A2998 RMK AO2 SLP153
T01330094 50000





000
SAUS46 KLOX 230849
MTRSDB
METAR KSDB 230848Z AUTO 24003KT 10SM CLR 20/M03 A3015 RMK AO2 SLP156
T02001028 56001





000
SAUS46 KLOX 230848
MTRCQT
METAR KCQT 230847Z AUTO 00000KT 10SM CLR 18/15 A2995 RMK AO2 SLP140
T01780150 58001





000
SAUS46 KLOX 230836
MTRMWS
METAR KMWS 230830Z 23500G00KT MM/M08 RMK SNOW DEPTH 3.00





000
SAUS46 KLOX 230815
MTRMWS
METAR KMWS 230800Z 13008G09KT 16/M06 RMK SNOW DEPTH 3.00





000
SAUS46 KLOX 230815
MTRMWS
METAR KMWS 230800Z 13008G09KT 16/M06 RMK SNOW DEPTH 3.00





000
SAUS46 KLOX 230757
MTR9L2
METAR K9L2 230755Z AUTO 00000KT 10SM CLR 10/M04 A3005 RMK AO2 SLP170
T01001044 402720050 TSNO $





000
SAUS46 KLOX 230754
MTRMWS
METAR KMWS 230745Z 13008G11KT 16/M04 RMK SNOW DEPTH 3.00





000
SAUS46 KLOX 230754
MTRMWS
METAR KMWS 230745Z 13008G11KT 16/M04 RMK SNOW DEPTH 3.00





000
SAUS46 KLOX 230754
MTRLAX
METAR KLAX 230753Z 00000KT 10SM FEW250 18/18 A2996 RMK AO2 SLP142
T01830178 402610178





000
SAUS46 KLOX 230753
MTRSMX
METAR KSMX 230751Z AUTO 10SM CLR 14/09 A2998 RMK AO2 SLP151
T01440094 402720139





000
SAUS46 KLOX 230753
MTRSMX
METAR KSMX 230751Z AUTO 10SM CLR 14/09 A2998 RMK AO2 SLP151
T01440094 402720139





000
SAUS46 KLOX 230749
MTRSDB
METAR KSDB 230748Z AUTO 33006KT 10SM CLR 18/M03 A3016 RMK AO2 SLP161
T01781028 402500094





000
SAUS46 KLOX 230748
MTRCQT
METAR KCQT 230747Z AUTO 00000KT 10SM CLR 18/15 A2995 RMK AO2 SLP140
T01780150 402890156





000
SAUS46 KLOX 230736
MTRMWS
METAR KMWS 230730Z 23500G00KT MM/M03 RMK SNOW DEPTH 3.00





000
SAUS46 KLOX 230715
MTRMWS
METAR KMWS 230700Z 14508G11KT 16/M03 RMK SNOW DEPTH 3.00





000
SAUS46 KLOX 230657
MTR9L2
METAR K9L2 230655Z AUTO 00000KT 10SM CLR 11/M06 A3004 RMK AO2 SLP168
T01111056 $





000
SAUS46 KLOX 230654
MTRMWS
METAR KMWS 230645Z 12509G12KT 16/M03 RMK SNOW DEPTH 3.00





000
SAUS46 KLOX 230654
MTRLAX
METAR KLAX 230653Z VRB03KT 10SM FEW250 19/19 A2996 RMK AO2 SLP143
T01940189





000
SAUS46 KLOX 230653
MTRSMX
METAR KSMX 230651Z AUTO 9SM CLR 14/09 A2999 RMK AO2 SLP154 T01440094





000
SAUS46 KLOX 230649
MTRSDB
METAR KSDB 230648Z AUTO 28005KT 10SM CLR 19/M03 A3015 RMK AO2 SLP159
T01891028





000
SAUS46 KLOX 230648
MTRCQT
METAR KCQT 230647Z AUTO 00000KT 10SM CLR 19/15 A2996 RMK AO2 SLP142
T01890150





000
SAUS46 KLOX 230636
MTRMWS
METAR KMWS 230630Z 23500G00KT MM/M02 RMK SNOW DEPTH 3.00





000
SAUS46 KLOX 230615
MTRMWS
METAR KMWS 230600Z 13507G10KT 16/M01 RMK SNOW DEPTH 3.00





000
SAUS46 KLOX 230557
MTR9L2
METAR K9L2 230555Z AUTO 00000KT 10SM CLR 13/M04 A3004 RMK AO2 SLP169
T01331044 10272 20133 53012 $





000
SAUS46 KLOX 230554
MTRLAX
METAR KLAX 230553Z 00000KT 10SM CLR 20/18 A2996 RMK AO2 SLPNO
T02000183 10222 20194 53007





000
SAUS46 KLOX 230554
MTRLAX
METAR KLAX 230553Z 00000KT 10SM CLR 20/18 A2996 RMK AO2 SLPNO
T02000183 10222 20194 53007





000
SAUS46 KLOX 230554
MTRMWS
METAR KMWS 230545Z 15503G07KT 16/M01 RMK SNOW DEPTH 4.00





000
SAUS46 KLOX 230554
MTRMWS
METAR KMWS 230545Z 15503G07KT 16/M01 RMK SNOW DEPTH 4.00





000
SAUS46 KLOX 230553
MTRSMX
METAR KSMX 230551Z AUTO 16003KT 9SM CLR 16/11 A2998 RMK AO2 SLP153
T01560106 10239 20156 51005





000
SAUS46 KLOX 230553
MTRSMX
METAR KSMX 230551Z AUTO 16003KT 9SM CLR 16/11 A2998 RMK AO2 SLP153
T01560106 10239 20156 51005





000
SAUS46 KLOX 230549
MTRSDB
METAR KSDB 230548Z AUTO 00000KT 10SM CLR 19/M02 A3016 RMK AO2 SLP163
T01891017 10233 20183 51007





000
SAUS46 KLOX 230548
MTRCQT
METAR KCQT 230547Z AUTO 00000KT 10SM CLR 19/16 A2996 RMK AO2 SLP141
T01940156 10250 20194 53009





000
SAUS46 KLOX 230536
MTRMWS
METAR KMWS 230530Z 23500G00KT MM/M01 RMK SNOW DEPTH 3.00





000
SAUS46 KLOX 230515
MTRMWS
METAR KMWS 230500Z 13505G07KT 16/M01 RMK SNOW DEPTH 3.00





000
SAUS46 KLOX 230457
MTR9L2
METAR K9L2 230455Z AUTO 13004KT 10SM CLR 17/M03 A3003 RMK AO2 SLP165
T01671033 $





000
SAUS46 KLOX 230457
MTR9L2
METAR K9L2 230455Z AUTO 13004KT 10SM CLR 17/M03 A3003 RMK AO2 SLP165
T01671033 $





000
SAUS46 KLOX 230455
MTRLAX
METAR KLAX 230453Z 24004KT 10SM FEW250 20/19 A2995 RMK AO2 SLPNO
T02000189





000
SAUS46 KLOX 230455
MTRLAX
METAR KLAX 230453Z 24004KT 10SM FEW250 20/19 A2995 RMK AO2 SLPNO
T02000189





000
SAUS46 KLOX 230454
MTRMWS
METAR KMWS 230445Z 14505G08KT 16/M02 RMK SNOW DEPTH 3.00





000
SAUS46 KLOX 230454
MTRMWS
METAR KMWS 230445Z 14505G08KT 16/M02 RMK SNOW DEPTH 3.00





000
SAUS46 KLOX 230452
MTRSMX
METAR KSMX 230451Z AUTO 13004KT 8SM CLR 16/11 A2998 RMK AO2 SLP152
T01610111





000
SAUS46 KLOX 230452
MTRSMX
METAR KSMX 230451Z AUTO 13004KT 8SM CLR 16/11 A2998 RMK AO2 SLP152
T01610111





000
SAUS46 KLOX 230449
MTRSDB
METAR KSDB 230448Z AUTO 35004KT 10SM CLR 19/M02 A3016 RMK AO2 SLP164
T01891017





000
SAUS46 KLOX 230449
MTRSDB
METAR KSDB 230448Z AUTO 35004KT 10SM CLR 19/M02 A3016 RMK AO2 SLP164
T01891017





000
SAUS46 KLOX 230448
MTRCQT
METAR KCQT 230447Z AUTO 00000KT 10SM CLR 20/16 A2995 RMK AO2 SLP138
T02000156





000
SAUS46 KLOX 230448
MTRCQT
METAR KCQT 230447Z AUTO 00000KT 10SM CLR 20/16 A2995 RMK AO2 SLP138
T02000156





000
SAUS46 KLOX 230436
MTRMWS
METAR KMWS 230430Z 23500G00KT MM/M01 RMK SNOW DEPTH 3.00





000
SAUS46 KLOX 230436
MTRMWS
METAR KMWS 230430Z 23500G00KT MM/M01 RMK SNOW DEPTH 3.00





000
SAUS46 KLOX 230415
MTRMWS
METAR KMWS 230400Z 15005G09KT 17/M03 RMK SNOW DEPTH 3.00





000
SAUS46 KLOX 230415
MTRMWS
METAR KMWS 230400Z 15005G09KT 17/M03 RMK SNOW DEPTH 3.00





000
SAUS46 KLOX 230357
MTR9L2
METAR K9L2 230355Z AUTO 21003KT 10SM CLR 17/M04 A3001 RMK AO2 SLP161
T01671039 $





000
SAUS46 KLOX 230357
MTR9L2
METAR K9L2 230355Z AUTO 21003KT 10SM CLR 17/M04 A3001 RMK AO2 SLP161
T01671039 $





000
SAUS46 KLOX 230354
MTRLAX
METAR KLAX 230353Z 25005KT 10SM FEW250 20/18 A2994 RMK AO2 SLPNO
T02000178





000
SAUS46 KLOX 230354
MTRMWS
METAR KMWS 230345Z 13507G11KT 16/M06 RMK SNOW DEPTH 3.00





000
SAUS46 KLOX 230354
MTRLAX
METAR KLAX 230353Z 25005KT 10SM FEW250 20/18 A2994 RMK AO2 SLPNO
T02000178





000
SAUS46 KLOX 230352
MTRSMX
METAR KSMX 230351Z AUTO 00000KT 10SM CLR 18/13 A2998 RMK AO2 SLP152
T01780128





000
SAUS46 KLOX 230352
MTRSMX
METAR KSMX 230351Z AUTO 00000KT 10SM CLR 18/13 A2998 RMK AO2 SLP152
T01780128





000
SAUS46 KLOX 230349
MTRSDB
METAR KSDB 230348Z AUTO 16003KT 10SM CLR 21/M03 A3014 RMK AO2 SLP162
T02061033





000
SAUS46 KLOX 230349
MTRSDB
METAR KSDB 230348Z AUTO 16003KT 10SM CLR 21/M03 A3014 RMK AO2 SLP162
T02061033





000
SAUS46 KLOX 230348
MTRCQT
METAR KCQT 230347Z AUTO 00000KT 10SM CLR 20/17 A2994 RMK AO2 SLP136
T02000167





000
SAUS46 KLOX 230348
MTRCQT
METAR KCQT 230347Z AUTO 00000KT 10SM CLR 20/17 A2994 RMK AO2 SLP136
T02000167





000
SAUS46 KLOX 230336
MTRMWS
METAR KMWS 230330Z 14507G13KT 17/M07 RMK SNOW DEPTH 4.00





000
SAUS46 KLOX 230315
MTRMWS
METAR KMWS 230300Z 15007G11KT 16/M07 RMK SNOW DEPTH 4.00





000
SAUS46 KLOX 230257
MTR9L2
METAR K9L2 230255Z AUTO 30005KT 10SM CLR 19/M04 A3001 RMK AO2 SLP158
T01941039 53010 $





000
SAUS46 KLOX 230255
MTRLAX
METAR KLAX 230253Z 26005KT 10SM FEW200 SCT250 21/16 A2994 RMK AO2
SLPNO T02060161 53014





000
SAUS46 KLOX 230254
MTRMWS
METAR KMWS 230245Z 14507G09KT 17/M04 RMK SNOW DEPTH 4.00





000
SAUS46 KLOX 230253
MTRSMX
METAR KSMX 230251Z AUTO 29008KT 10SM CLR 18/12 A2997 RMK AO2 SLP148
T01830122 53009





000
SAUS46 KLOX 230249
MTRSDB
METAR KSDB 230248Z AUTO 09006KT 10SM CLR 21/M04 A3014 RMK AO2 SLP160
T02061039 53007





000
SAUS46 KLOX 230248
MTRCQT
METAR KCQT 230247Z AUTO 00000KT 10SM CLR 21/17 A2993 RMK AO2 SLP133
T02110172 53017





000
SAUS46 KLOX 230236
MTRMWS
METAR KMWS 230230Z 23500G00KT MM/M01 RMK SNOW DEPTH 4.00





000
SAUS46 KLOX 230215
MTRMWS
METAR KMWS 230200Z 14006G09KT 17/M03 RMK SNOW DEPTH 4.00





000
SAUS46 KLOX 230215
MTRMWS
METAR KMWS 230200Z 14006G09KT 17/M03 RMK SNOW DEPTH 4.00





000
SAUS46 KLOX 230157
MTR9L2
METAR K9L2 230155Z AUTO 26004KT 10SM CLR 21/M03 A3000 RMK AO2 SLP156
T02061033 $





000
SAUS46 KLOX 230157
MTR9L2
METAR K9L2 230155Z AUTO 26004KT 10SM CLR 21/M03 A3000 RMK AO2 SLP156
T02061033 $





000
SAUS46 KLOX 230154
MTRMWS
METAR KMWS 230145Z 14506G09KT 18/M03 RMK SNOW DEPTH 4.00





000
SAUS46 KLOX 230154
MTRMWS
METAR KMWS 230145Z 14506G09KT 18/M03 RMK SNOW DEPTH 4.00





000
SAUS46 KLOX 230154
MTRLAX
METAR KLAX 230153Z 26007KT 10SM FEW200 SCT250 21/18 A2992 RMK AO2
SLPNO T02060183





000
SAUS46 KLOX 230154
MTRLAX
METAR KLAX 230153Z 26007KT 10SM FEW200 SCT250 21/18 A2992 RMK AO2
SLPNO T02060183





000
SAUS46 KLOX 230152
MTRSMX
METAR KSMX 230151Z 29009KT 10SM SCT200 20/09 A2995 RMK AO2 SLP140
T02000094





000
SAUS46 KLOX 230152
MTRSMX
METAR KSMX 230151Z 29009KT 10SM SCT200 20/09 A2995 RMK AO2 SLP140
T02000094





000
SAUS46 KLOX 230149
MTRCQT
METAR KCQT 230147Z AUTO 28003KT 10SM CLR 22/16 A2991 RMK AO2 SLP126
T02170156





000
SAUS46 KLOX 230149
MTRCQT
METAR KCQT 230147Z AUTO 28003KT 10SM CLR 22/16 A2991 RMK AO2 SLP126
T02170156





000
SAUS46 KLOX 230149
MTRSDB
METAR KSDB 230148Z AUTO 08007KT 10SM CLR 21/M04 A3012 RMK AO2 SLP160
T02061039





000
SAUS46 KLOX 230149
MTRSDB
METAR KSDB 230148Z AUTO 08007KT 10SM CLR 21/M04 A3012 RMK AO2 SLP160
T02061039





000
SAUS46 KLOX 230136
MTRMWS
METAR KMWS 230130Z 23500G00KT MM/M04 RMK SNOW DEPTH 4.00





000
SAUS46 KLOX 230136
MTRMWS
METAR KMWS 230130Z 23500G00KT MM/M04 RMK SNOW DEPTH 4.00





000
SAUS46 KLOX 230115
MTRMWS
METAR KMWS 230100Z 20502G03KT 20/02 RMK SNOW DEPTH 4.00





000
SAUS46 KLOX 230115
MTRMWS
METAR KMWS 230100Z 20502G03KT 20/02 RMK SNOW DEPTH 4.00





000
SAUS46 KLOX 230057
MTR9L2
METAR K9L2 230055Z AUTO 00000KT 10SM CLR 26/M02 A2998 RMK AO2 SLP145
T02561017 $





000
SAUS46 KLOX 230057
MTR9L2
METAR K9L2 230055Z AUTO 00000KT 10SM CLR 26/M02 A2998 RMK AO2 SLP145
T02561017 $





000
SAUS46 KLOX 230055
MTRLAX
METAR KLAX 230053Z 27011KT 10SM FEW200 SCT250 21/18 A2990 RMK AO2
SLPNO T02110178





000
SAUS46 KLOX 230055
MTRLAX
METAR KLAX 230053Z 27011KT 10SM FEW200 SCT250 21/18 A2990 RMK AO2
SLPNO T02110178





000
SAUS46 KLOX 230054
MTRMWS
METAR KMWS 230045Z 22004G06KT 20/02 RMK SNOW DEPTH 4.00





000
SAUS46 KLOX 230054
MTRMWS
METAR KMWS 230045Z 22004G06KT 20/02 RMK SNOW DEPTH 4.00





000
SAUS46 KLOX 230053
MTRSMX
METAR KSMX 230051Z 29011KT 10SM SCT200 22/09 A2993 RMK AO2 SLP136
T02170094





000
SAUS46 KLOX 230053
MTRSMX
METAR KSMX 230051Z 29011KT 10SM SCT200 22/09 A2993 RMK AO2 SLP136
T02170094





000
SAUS46 KLOX 230049
MTRSDB
METAR KSDB 230048Z AUTO 06005KT 10SM CLR 22/M03 A3011 RMK AO2 SLP154
T02171033





000
SAUS46 KLOX 230049
MTRSDB
METAR KSDB 230048Z AUTO 06005KT 10SM CLR 22/M03 A3011 RMK AO2 SLP154
T02171033





000
SAUS46 KLOX 230048
MTRCQT
METAR KCQT 230047Z AUTO 28005KT 10SM CLR 23/14 A2989 RMK AO2 SLP119
T02330144





000
SAUS46 KLOX 230048
MTRCQT
METAR KCQT 230047Z AUTO 28005KT 10SM CLR 23/14 A2989 RMK AO2 SLP119
T02330144





000
SAUS46 KLOX 230036
MTRMWS
METAR KMWS 230030Z 23500G00KT MM/05 RMK SNOW DEPTH 4.00





000
SAUS46 KLOX 230036
MTRMWS
METAR KMWS 230030Z 23500G00KT MM/05 RMK SNOW DEPTH 4.00





000
SAUS46 KLOX 230015
MTRMWS
METAR KMWS 230000Z 22503G05KT 22/05 RMK SNOW DEPTH 4.00





000
SAUS46 KLOX 230015
MTRMWS
METAR KMWS 230000Z 22503G05KT 22/05 RMK SNOW DEPTH 4.00





000
SAUS46 KLOX 222357
MTR9L2
METAR K9L2 222355Z AUTO 34003KT 10SM CLR 27/M02 A2997 RMK AO2 SLP142
T02721017 10272 20172 57011 $





000
SAUS46 KLOX 222357
MTR9L2
METAR K9L2 222355Z AUTO 34003KT 10SM CLR 27/M02 A2997 RMK AO2 SLP142
T02721017 10272 20172 57011 $





000
SAUS46 KLOX 222355
MTRLAX
METAR KLAX 222353Z 26011KT 10SM SCT250 22/18 A2989 RMK AO2 SLPNO
T02220183 58005





000
SAUS46 KLOX 222355
MTRLAX
METAR KLAX 222353Z 26011KT 10SM SCT250 22/18 A2989 RMK AO2 SLPNO
T02220183 58005





000
SAUS46 KLOX 222354
MTRMWS
METAR KMWS 222345Z 25001G04KT 23/01 RMK SNOW DEPTH 4.00





000
SAUS46 KLOX 222354
MTRMWS
METAR KMWS 222345Z 25001G04KT 23/01 RMK SNOW DEPTH 4.00





000
SAUS46 KLOX 222352
MTRSMX
METAR KSMX 222351Z 29010KT 10SM CLR 24/10 A2994 RMK AO2 SLP138 60000
T02440100 10272 20244 55002





000
SAUS46 KLOX 222352
MTRSMX
METAR KSMX 222351Z 29010KT 10SM CLR 24/10 A2994 RMK AO2 SLP138 60000
T02440100 10272 20244 55002





000
SAUS46 KLOX 222349
MTRSDB
METAR KSDB 222348Z AUTO 06007KT 10SM CLR 23/M03 A3011 RMK AO2 SLP153
T02331028 10250 20206 56004





000
SAUS46 KLOX 222349
MTRSDB
METAR KSDB 222348Z AUTO 06007KT 10SM CLR 23/M03 A3011 RMK AO2 SLP153
T02331028 10250 20206 56004





000
SAUS46 KLOX 222349
MTRCQT
METAR KCQT 222347Z AUTO VRB04KT 10SM CLR 25/13 A2988 RMK AO2 SLP115
T02500128 10289 20244 58002





000
SAUS46 KLOX 222349
MTRCQT
METAR KCQT 222347Z AUTO VRB04KT 10SM CLR 25/13 A2988 RMK AO2 SLP115
T02500128 10289 20244 58002





000
SAUS46 KLOX 222336
MTRMWS
METAR KMWS 222330Z 23500G00KT MM/02 RMK SNOW DEPTH 4.00





000
SAUS46 KLOX 222315
MTRMWS
METAR KMWS 222300Z 22504G06KT 25/02 RMK SNOW DEPTH 4.00





000
SAUS46 KLOX 222315
MTRMWS
METAR KMWS 222300Z 22504G06KT 25/02 RMK SNOW DEPTH 4.00





000
SAUS46 KLOX 222257
MTR9L2
METAR K9L2 222255Z AUTO 00000KT 10SM CLR 27/M01 A2999 RMK AO2 SLP148
T02671011 $





000
SAUS46 KLOX 222257
MTR9L2
METAR K9L2 222255Z AUTO 00000KT 10SM CLR 27/M01 A2999 RMK AO2 SLP148
T02671011 $





000
SAUS46 KLOX 222254
MTRLAX
METAR KLAX 222253Z 27011KT 10SM SCT250 23/17 A2990 RMK AO2 SLPNO
T02280167





000
SAUS46 KLOX 222254
MTRMWS
METAR KMWS 222245Z 22505G07KT 23/02 RMK SNOW DEPTH 5.00





000
SAUS46 KLOX 222254
MTRLAX
METAR KLAX 222253Z 27011KT 10SM SCT250 23/17 A2990 RMK AO2 SLPNO
T02280167





000
SAUS46 KLOX 222254
MTRMWS
METAR KMWS 222245Z 22505G07KT 23/02 RMK SNOW DEPTH 5.00





000
SAUS46 KLOX 222252
MTRSMX
METAR KSMX 222251Z 30015KT 10SM SCT200 26/09 A2993 RMK AO2 SLP134
T02560094





000
SAUS46 KLOX 222252
MTRSMX
METAR KSMX 222251Z 30015KT 10SM SCT200 26/09 A2993 RMK AO2 SLP134
T02560094





000
SAUS46 KLOX 222249
MTRSDB
METAR KSDB 222248Z AUTO 06008KT 10SM CLR 24/M03 A3011 RMK AO2 SLP152
T02441028





000
SAUS46 KLOX 222249
MTRSDB
METAR KSDB 222248Z AUTO 06008KT 10SM CLR 24/M03 A3011 RMK AO2 SLP152
T02441028





000
SAUS46 KLOX 222249
MTRCQT
METAR KCQT 222247Z AUTO VRB04KT 10SM CLR 26/13 A2989 RMK AO2 SLP118
T02610133





000
SAUS46 KLOX 222249
MTRCQT
METAR KCQT 222247Z AUTO VRB04KT 10SM CLR 26/13 A2989 RMK AO2 SLP118
T02610133





000
SAUS46 KLOX 222236
MTRMWS
METAR KMWS 222230Z 23500G00KT MM/02 RMK SNOW DEPTH 5.00





000
SAUS46 KLOX 222215
MTRMWS
METAR KMWS 222200Z 20505G08KT 24/02 RMK SNOW DEPTH 5.00





000
SAUS46 KLOX 222215
MTRMWS
METAR KMWS 222200Z 20505G08KT 24/02 RMK SNOW DEPTH 5.00





000
SAUS46 KLOX 222157
MTR9L2
METAR K9L2 222155Z AUTO 00000KT 10SM CLR 26/M01 A3000 RMK AO2 SLP149
T02561006 $





000
SAUS46 KLOX 222155
MTRLAX
METAR KLAX 222153Z 27011KT 10SM SCT250 23/16 A2990 RMK AO2 SLPNO
T02280161





000
SAUS46 KLOX 222154
MTRMWS
METAR KMWS 222145Z 21506G08KT 24/02 RMK SNOW DEPTH 5.00





000
SAUS46 KLOX 222153
MTRSMX
METAR KSMX 222151Z 29016KT 10SM SCT250 27/09 A2992 RMK AO2 SLP132
T02670094





000
SAUS46 KLOX 222149
MTRSDB
METAR KSDB 222148Z AUTO 07010G16KT 10SM CLR 25/M02 A3012 RMK AO2
SLP154 T02501022





000
SAUS46 KLOX 222148
MTRCQT
METAR KCQT 222147Z AUTO 25003KT 10SM CLR 26/14 A2989 RMK AO2 SLP118
T02610144





000
SAUS46 KLOX 222136
MTRMWS
METAR KMWS 222130Z 23500G00KT MM/03 RMK SNOW DEPTH 5.00





000
SAUS46 KLOX 222120
MTRLAX
SPECI KLAX 222119Z 26012KT 10SM SCT250 23/16 A2991 RMK AO2 THIS IS A
COMM TEST... TEST ONLY





000
SAUS46 KLOX 222115
MTRMWS
METAR KMWS 222100Z 20505G08KT 23/04 RMK SNOW DEPTH 4.00





000
SAUS46 KLOX 222057
MTR9L2
METAR K9L2 222055Z AUTO 00000KT 10SM CLR 24/00 A3001 RMK AO2 SLP155
T02390000 58020 $





000
SAUS46 KLOX 222054
MTRLAX
METAR KLAX 222053Z 25011KT 10SM SCT250 23/17 A2991 RMK AO2 SLPNO
T02280167





000
SAUS46 KLOX 222054
MTRMWS
METAR KMWS 222045Z 20005G07KT 25/04 RMK SNOW DEPTH 5.00





000
SAUS46 KLOX 222053
MTRSMX
METAR KSMX 222051Z 28017KT 10SM SCT250 26/09 A2994 RMK AO2 SLP139
60000 T02610089 58014





000
SAUS46 KLOX 222049
MTRSDB
METAR KSDB 222048Z AUTO 08011KT 10SM CLR 24/M02 A3012 RMK AO2 SLP156
T02391022 58007





000
SAUS46 KLOX 222048
MTRCQT
METAR KCQT 222047Z AUTO VRB04KT 10SM CLR 27/14 A2989 RMK AO2 SLP117
T02720139 58018





000
SAUS46 KLOX 222036
MTRMWS
METAR KMWS 222030Z 23500G00KT MM/01 RMK SNOW DEPTH 5.00





000
SAUS46 KLOX 222036
MTRMWS
METAR KMWS 222030Z 23500G00KT MM/01 RMK SNOW DEPTH 5.00





000
SAUS46 KLOX 222015
MTRMWS
METAR KMWS 222000Z 23005G08KT 25/01 RMK SNOW DEPTH 5.00





000
SAUS46 KLOX 221957
MTR9L2
METAR K9L2 221955Z AUTO 00000KT 10SM CLR 22/01 A3003 RMK AO2 SLP162
T02220006 TSNO $





000
SAUS46 KLOX 221954
MTRMWS
METAR KMWS 221945Z 22004G06KT 23/01 RMK SNOW DEPTH 4.00





000
SAUS46 KLOX 221954
MTRLAX
METAR KLAX 221953Z 27010KT 10SM SCT250 24/16 A2992 RMK AO2 SLPNO
T02440156





000
SAUS46 KLOX 221952
MTRSMX
METAR KSMX 221951Z 29015KT 10SM FEW200 27/07 A2996 RMK AO2 SLP144
T02720067





000
SAUS46 KLOX 221949
MTRSDB
METAR KSDB 221948Z AUTO 08014KT 10SM CLR 23/M02 A3014 RMK AO2 SLP162
T02331017





000
SAUS46 KLOX 221948
MTRCQT
METAR KCQT 221947Z AUTO 00000KT 10SM CLR 28/10 A2990 RMK AO2 SLP123
T02780100





000
SAUS46 KLOX 221936
MTRMWS
METAR KMWS 221930Z 23500G00KT MM/01 RMK SNOW DEPTH 4.00





000
SAUS46 KLOX 221858
MTR9L2
METAR K9L2 221855Z AUTO 18004KT 10SM CLR 20/03 A3006 RMK AO2 SLP174
T02000028 TSNO $





000
SAUS46 KLOX 221857
MTRMWS
METAR KMWS 221845Z 31001G03KT 25/M02 RMK SNOW DEPTH 4.00





000
SAUS46 KLOX 221852
MTRSMX
METAR KSMX 221851Z 29009KT 10SM FEW200 27/07 A2998 RMK AO2 RAB41E46
SLP150 P0000 T02670072





000
SAUS46 KLOX 221849
MTRSDB
METAR KSDB 221848Z AUTO 07015G20KT 10SM CLR 22/M02 A3015 RMK AO2
SLP166 T02221017





000
SAUS46 KLOX 221848
MTRCQT
METAR KCQT 221847Z AUTO VRB03KT 10SM CLR 27/12 A2992 RMK AO2 SLP130
T02720122





000
SAUS46 KLOX 221836
MTRMWS
METAR KMWS 221830Z 23500G00KT MM/M05 RMK SNOW DEPTH 4.00





000
SAUS46 KLOX 221815
MTRMWS
METAR KMWS 221800Z 35502G03KT 23/M06 RMK SNOW DEPTH 4.00





000
SAUS46 KLOX 221757
MTR9L2
METAR K9L2 221755Z AUTO 15003KT 10SM CLR 17/03 A3007 RMK AO2 SLP179
T01720033 10172 20050 51010 TSNO $





000
SAUS46 KLOX 221757
MTR9L2
METAR K9L2 221755Z AUTO 15003KT 10SM CLR 17/03 A3007 RMK AO2 SLP179
T01720033 10172 20050 51010 TSNO $





000
SAUS46 KLOX 221754
MTRMWS
METAR KMWS 221745Z 07502G02KT 22/M07 RMK SNOW DEPTH 4.00





000
SAUS46 KLOX 221754
MTRMWS
METAR KMWS 221745Z 07502G02KT 22/M07 RMK SNOW DEPTH 4.00





000
SAUS46 KLOX 221754
MTRLAX
METAR KLAX 221753Z AUTO 05003KT 7SM 24/15 A2995 RMK AO2 SLPNO 6////
T02390150 TSNO CHINO RWY24 VISNO RWY24





000
SAUS46 KLOX 221754
MTRLAX
METAR KLAX 221753Z AUTO 05003KT 7SM 24/15 A2995 RMK AO2 SLPNO 6////
T02390150 TSNO CHINO RWY24 VISNO RWY24





000
SAUS46 KLOX 221752
MTRSMX
METAR KSMX 221751Z 32004KT 10SM FEW200 25/05 A2998 RMK AO2 SLP153
T02500050 10250 20183 50014





000
SAUS46 KLOX 221752
MTRSMX
METAR KSMX 221751Z 32004KT 10SM FEW200 25/05 A2998 RMK AO2 SLP153
T02500050 10250 20183 50014





000
SAUS46 KLOX 221749
MTRSDB
METAR KSDB 221748Z AUTO 08014G21KT 10SM CLR 21/M02 A3015 RMK AO2
SLP167 T02111017 10211 20094 51019





000
SAUS46 KLOX 221749
MTRSDB
METAR KSDB 221748Z AUTO 08014G21KT 10SM CLR 21/M02 A3015 RMK AO2
SLP167 T02111017 10211 20094 51019





000
SAUS46 KLOX 221748
MTRCQT
METAR KCQT 221747Z AUTO 00000KT 8SM CLR 24/14 A2994 RMK AO2 SLP136
T02390139 10239 20156 50006





000
SAUS46 KLOX 221748
MTRCQT
METAR KCQT 221747Z AUTO 00000KT 8SM CLR 24/14 A2994 RMK AO2 SLP136
T02390139 10239 20156 50006





000
SAUS46 KLOX 221736
MTRMWS
METAR KMWS 221730Z 23500G00KT MM/M07 RMK SNOW DEPTH 4.00





000
SAUS46 KLOX 221736
MTRMWS
METAR KMWS 221730Z 23500G00KT MM/M07 RMK SNOW DEPTH 4.00





000
SAUS46 KLOX 221715
MTRMWS
METAR KMWS 221700Z 07500G01KT 21/M08 RMK SNOW DEPTH 4.00





000
SAUS46 KLOX 221715
MTRMWS
METAR KMWS 221700Z 07500G01KT 21/M08 RMK SNOW DEPTH 4.00





000
SAUS46 KLOX 221658
MTR9L2
METAR K9L2 221655Z AUTO 17003KT 10SM CLR 14/04 A3007 RMK AO2 SLP179
T01390039 TSNO $





000
SAUS46 KLOX 221658
MTR9L2
METAR K9L2 221655Z AUTO 17003KT 10SM CLR 14/04 A3007 RMK AO2 SLP179
T01390039 TSNO $





000
SAUS46 KLOX 221657
MTRMWS
METAR KMWS 221645Z 06501G03KT 21/M08 RMK SNOW DEPTH 3.00





000
SAUS46 KLOX 221657
MTRMWS
METAR KMWS 221645Z 06501G03KT 21/M08 RMK SNOW DEPTH 3.00





000
SAUS46 KLOX 221654
MTRLAX
METAR KLAX 221653Z 11005KT 10SM SCT250 21/14 A2996 RMK AO2 SLP142
T02110144 $





000
SAUS46 KLOX 221654
MTRLAX
METAR KLAX 221653Z 11005KT 10SM SCT250 21/14 A2996 RMK AO2 SLP142
T02110144 $





000
SAUS46 KLOX 221653
MTRSMX
METAR KSMX 221651Z 36004KT 10SM SCT200 24/06 A2999 RMK AO2 SLP154
T02390056





000
SAUS46 KLOX 221653
MTRSMX
METAR KSMX 221651Z 36004KT 10SM SCT200 24/06 A2999 RMK AO2 SLP154
T02390056





000
SAUS46 KLOX 221649
MTRSDB
METAR KSDB 221648Z AUTO 07013KT 10SM CLR 19/M02 A3013 RMK AO2 SLP163
T01891017





000
SAUS46 KLOX 221649
MTRSDB
METAR KSDB 221648Z AUTO 07013KT 10SM CLR 19/M02 A3013 RMK AO2 SLP163
T01891017





000
SAUS46 KLOX 221648
MTRCQT
METAR KCQT 221647Z AUTO 00000KT 8SM CLR 22/12 A2995 RMK AO2 SLP138
T02220122





000
SAUS46 KLOX 221648
MTRCQT
METAR KCQT 221647Z AUTO 00000KT 8SM CLR 22/12 A2995 RMK AO2 SLP138
T02220122





000
SAUS46 KLOX 221636
MTRMWS
METAR KMWS 221630Z 23500G00KT MM/M07 RMK SNOW DEPTH 3.00





000
SAUS46 KLOX 221636
MTRMWS
METAR KMWS 221630Z 23500G00KT MM/M07 RMK SNOW DEPTH 3.00





000
SAUS46 KLOX 221615
MTRMWS
METAR KMWS 221600Z 05504G05KT 18/M06 RMK SNOW DEPTH 3.00





000
SAUS46 KLOX 221615
MTRMWS
METAR KMWS 221600Z 05504G05KT 18/M06 RMK SNOW DEPTH 3.00





000
SAUS46 KLOX 221557
MTR9L2
METAR K9L2 221555Z AUTO 00000KT 10SM CLR 11/03 A3006 RMK AO2 SLP177
T01060028 TSNO $





000
SAUS46 KLOX 221557
MTR9L2
METAR K9L2 221555Z AUTO 00000KT 10SM CLR 11/03 A3006 RMK AO2 SLP177
T01060028 TSNO $





000
SAUS46 KLOX 221554
MTRMWS
METAR KMWS 221545Z 05003G04KT 17/M08 RMK SNOW DEPTH 3.00





000
SAUS46 KLOX 221554
MTRLAX
METAR KLAX 221553Z 10005KT 10SM FEW250 19/14 A2995 RMK AO2 SLP140
T01940139 $





000
SAUS46 KLOX 221554
MTRMWS
METAR KMWS 221545Z 05003G04KT 17/M08 RMK SNOW DEPTH 3.00





000
SAUS46 KLOX 221554
MTRLAX
METAR KLAX 221553Z 10005KT 10SM FEW250 19/14 A2995 RMK AO2 SLP140
T01940139 $





000
SAUS46 KLOX 221553
MTRSMX
METAR KSMX 221551Z 32003KT 10SM FEW200 21/06 A2997 RMK AO2 SLP151
T02060056





000
SAUS46 KLOX 221549
MTRSDB
METAR KSDB 221548Z AUTO 01004KT 10SM CLR 14/03 A3012 RMK AO2 SLP165
T01390033





000
SAUS46 KLOX 221548
MTRCQT
METAR KCQT 221547Z AUTO 00000KT 9SM CLR 20/13 A2994 RMK AO2 SLP138
T02000128





000
SAUS46 KLOX 221536
MTRMWS
METAR KMWS 221530Z 23500G00KT MM/M06 RMK SNOW DEPTH 3.00





000
SAUS46 KLOX 221536
MTRMWS
METAR KMWS 221530Z 23500G00KT MM/M06 RMK SNOW DEPTH 3.00





000
SAUS46 KLOX 221515
MTRMWS
METAR KMWS 221500Z 03501G01KT 16/M08 RMK SNOW DEPTH 3.00





000
SAUS46 KLOX 221457
MTR9L2
METAR K9L2 221455Z AUTO 00000KT 10SM CLR 08/02 A3004 RMK AO2 SLP172
T00830017 53025 TSNO $





000
SAUS46 KLOX 221454
MTRMWS
METAR KMWS 221445Z 27002G03KT 14/M10 RMK SNOW DEPTH 3.00





000
SAUS46 KLOX 221454
MTRLAX
METAR KLAX 221453Z 13004KT 10SM CLR 17/16 A2993 RMK AO2 SLP133
T01720156 53017





000
SAUS46 KLOX 221453
MTRSMX
METAR KSMX 221451Z VRB04KT 10SM CLR 19/06 A2994 RMK AO2 SLP140
T01940056 53010





000
SAUS46 KLOX 221449
MTRSDB
METAR KSDB 221448Z AUTO 34017KT 10SM CLR 14/01 A3008 RMK AO2 SLP155
T01390011 51013





000
SAUS46 KLOX 221448
MTRCQT
METAR KCQT 221447Z AUTO 00000KT 10SM CLR 16/14 A2992 RMK AO2 SLP131
T01610139 53015





000
SAUS46 KLOX 221415
MTRMWS
METAR KMWS 221400Z 03001G01KT 13/M09 RMK SNOW DEPTH 3.00





000
SAUS46 KLOX 221357
MTR9L2
METAR K9L2 221355Z AUTO 00000KT 10SM CLR 05/M01 A3001 RMK AO2 SLP162
T00501006 TSNO $





000
SAUS46 KLOX 221354
MTRMWS
METAR KMWS 221345Z 09001G01KT 12/M10 RMK SNOW DEPTH 3.00





000
SAUS46 KLOX 221354
MTRLAX
METAR KLAX 221353Z 13003KT 10SM BCFG FEW001 SCT200 17/15 A2991 RMK
AO2 SLP125 FG BANK SE-S T01670150





000
SAUS46 KLOX 221352
MTRSMX
METAR KSMX 221351Z 02011G17KT 10SM CLR 19/06 A2994 RMK AO2 SLP138
T01940056





000
SAUS46 KLOX 221349
MTRSDB
METAR KSDB 221348Z AUTO 32018KT 10SM CLR 11/04 A3007 RMK AO2 SLP152
T01060044





000
SAUS46 KLOX 221348
MTRCQT
METAR KCQT 221347Z AUTO 00000KT 9SM CLR 16/13 A2990 RMK AO2 SLP125
T01560133





000
SAUS46 KLOX 221336
MTRMWS
METAR KMWS 221330Z 23500G00KT MM/M09 RMK SNOW DEPTH 3.00





000
SAUS46 KLOX 221315
MTRMWS
METAR KMWS 221300Z 34003G04KT 15/M09 RMK SNOW DEPTH 3.00





000
SAUS46 KLOX 221257
MTR9L2
METAR K9L2 221255Z AUTO 00000KT 10SM CLR 07/01 A2999 RMK AO2 SLP152
T00670006 TSNO $





000
SAUS46 KLOX 221254
MTRLAX
METAR KLAX 221253Z 00000KT 10SM FEW007 17/16 A2990 RMK AO2 SLP121
T01670156 $





000
SAUS46 KLOX 221253
MTRSMX
METAR KSMX 221251Z 04012G20KT 10SM CLR 19/05 A2992 RMK AO2 SLP130
T01940050





000
SAUS46 KLOX 221249
MTRSDB
METAR KSDB 221248Z AUTO 32019KT 10SM CLR 10/04 A3006 RMK AO2 SLP147
T01000039





000
SAUS46 KLOX 221248
MTRCQT
METAR KCQT 221247Z AUTO 00000KT 10SM CLR 16/14 A2989 RMK AO2 SLP119
T01610139





000
SAUS46 KLOX 221236
MTRMWS
METAR KMWS 221230Z 23500G00KT MM/M07 RMK SNOW DEPTH 3.00





000
SAUS46 KLOX 221215
MTRMWS
METAR KMWS 221200Z 35503G03KT 15/M09 RMK SNOW DEPTH 3.00





000
SAUS46 KLOX 221157
MTR9L2
METAR K9L2 221155Z AUTO 00000KT 10SM CLR 07/01 A2996 RMK AO2 SLP141
T00670006 10133 20061 51006 TSNO $





000
SAUS46 KLOX 221154
MTRLAX
METAR KLAX 221153Z 00000KT 10SM FEW012 17/16 A2988 RMK AO2 SLP116
T01670156 10194 20161 50001 $





000
SAUS46 KLOX 221154
MTRMWS
METAR KMWS 221145Z 23500G00KT MM/M08 RMK SNOW DEPTH 3.00





000
SAUS46 KLOX 221153
MTRSMX
METAR KSMX 221151Z AUTO 04012G18KT 10SM CLR 19/05 A2991 RMK AO2
SLP129 T01940050 10206 20161 58005





000
SAUS46 KLOX 221149
MTRSDB
METAR KSDB 221148Z AUTO 33016KT 10SM CLR 10/03 A3004 RMK AO2 SLP137
T01000033 10117 20094 50000





000
SAUS46 KLOX 221148
MTRCQT
METAR KCQT 221147Z AUTO 00000KT 10SM CLR 17/14 A2988 RMK AO2 SLP116
T01670144 10194 20167 50002





000
SAUS46 KLOX 221136
MTRMWS
METAR KMWS 221130Z 23500G00KT MM/M10 RMK SNOW DEPTH 3.00





000
SAUS46 KLOX 221115
MTRMWS
METAR KMWS 221100Z 02004G05KT 13/M10 RMK SNOW DEPTH 3.00





000
SAUS46 KLOX 221057
MTR9L2
METAR K9L2 221055Z AUTO 00000KT 10SM CLR 07/01 A2995 RMK AO2 SLP136
T00670011 TSNO $





000
SAUS46 KLOX 221057
MTR9L2
METAR K9L2 221055Z AUTO 00000KT 10SM CLR 07/01 A2995 RMK AO2 SLP136
T00670011 TSNO $





000
SAUS46 KLOX 221054
MTRMWS
METAR KMWS 221045Z 02504G07KT 13/M11 RMK SNOW DEPTH 3.00





000
SAUS46 KLOX 221054
MTRLAX
METAR KLAX 221053Z 05004KT 10SM CLR 17/16 A2988 RMK AO2 SLP117
T01670161 $





000
SAUS46 KLOX 221053
MTRSMX
METAR KSMX 221051Z AUTO 03013KT 10SM CLR 19/04 A2992 RMK AO2 SLP132
T01940044





000
SAUS46 KLOX 221049
MTRSDB
METAR KSDB 221048Z AUTO 33018G23KT 10SM CLR 11/04 A3004 RMK AO2 PK
WND 32028/1005 SLP136 T01060039





000
SAUS46 KLOX 221048
MTRCQT
METAR KCQT 221047Z AUTO 00000KT 10SM CLR 17/14 A2988 RMK AO2 SLP116
T01670144





000
SAUS46 KLOX 221036
MTRMWS
METAR KMWS 221030Z 23500G00KT MM/M10 RMK SNOW DEPTH 3.00





000
SAUS46 KLOX 221015
MTRMWS
METAR KMWS 221000Z 35506G07KT 15/M11 RMK SNOW DEPTH 3.00





000
SAUS46 KLOX 221015
MTRMWS
METAR KMWS 221000Z 35506G07KT 15/M11 RMK SNOW DEPTH 3.00





000
SAUS46 KLOX 220958
MTR9L2
METAR K9L2 220955Z AUTO 01005KT 10SM CLR 08/02 A2995 RMK AO2 SLP136
T00830022 TSNO $





000
SAUS46 KLOX 220958
MTR9L2
METAR K9L2 220955Z AUTO 01005KT 10SM CLR 08/02 A2995 RMK AO2 SLP136
T00830022 TSNO $





000
SAUS46 KLOX 220954
MTRLAX
METAR KLAX 220953Z 00000KT 10SM CLR 17/17 A2988 RMK AO2 SLPNO
T01720167 $





000
SAUS46 KLOX 220954
MTRMWS
METAR KMWS 220945Z 35505G07KT 15/M11 RMK SNOW DEPTH 3.00





000
SAUS46 KLOX 220954
MTRLAX
METAR KLAX 220953Z 00000KT 10SM CLR 17/17 A2988 RMK AO2 SLPNO
T01720167 $





000
SAUS46 KLOX 220954
MTRMWS
METAR KMWS 220945Z 35505G07KT 15/M11 RMK SNOW DEPTH 3.00





000
SAUS46 KLOX 220952
MTRSMX
METAR KSMX 220951Z AUTO 01013KT 10SM CLR 19/04 A2993 RMK AO2 SLP134
T01940039





000
SAUS46 KLOX 220952
MTRSMX
METAR KSMX 220951Z AUTO 01013KT 10SM CLR 19/04 A2993 RMK AO2 SLP134
T01940039





000
SAUS46 KLOX 220949
MTRSDB
METAR KSDB 220948Z AUTO 32021G30KT 10SM CLR 09/04 A3004 RMK AO2 PK
WND 33035/0855 SLP140 T00940044





000
SAUS46 KLOX 220949
MTRSDB
METAR KSDB 220948Z AUTO 32021G30KT 10SM CLR 09/04 A3004 RMK AO2 PK
WND 33035/0855 SLP140 T00940044





000
SAUS46 KLOX 220948
MTRCQT
METAR KCQT 220947Z AUTO 00000KT 10SM CLR 18/15 A2987 RMK AO2 SLP113
T01780150





000
SAUS46 KLOX 220948
MTRCQT
METAR KCQT 220947Z AUTO 00000KT 10SM CLR 18/15 A2987 RMK AO2 SLP113
T01780150





000
SAUS46 KLOX 220936
MTRMWS
METAR KMWS 220930Z 23500G00KT MM/M11 RMK SNOW DEPTH 3.00





000
SAUS46 KLOX 220936
MTRMWS
METAR KMWS 220930Z 23500G00KT MM/M11 RMK SNOW DEPTH 3.00





000
SAUS46 KLOX 220915
MTRMWS
METAR KMWS 220900Z 33505G06KT 13/M12 RMK SNOW DEPTH 3.00





000
SAUS46 KLOX 220857
MTR9L2
METAR K9L2 220855Z AUTO 00000KT 10SM CLR 09/02 A2994 RMK AO2 SLP130
T00890017 51004 TSNO $





000
SAUS46 KLOX 220855
MTRLAX
METAR KLAX 220853Z 11003KT 10SM CLR 18/17 A2988 RMK AO2 SLP115
T01780167 51001 $





000
SAUS46 KLOX 220854
MTRMWS
METAR KMWS 220845Z 33505G06KT 15/M10 RMK SNOW DEPTH 3.00





000
SAUS46 KLOX 220852
MTRSMX
METAR KSMX 220851Z AUTO 01016G21KT 10SM CLR 21/03 A2993 RMK AO2
SLP133 T02060028 58009





000
SAUS46 KLOX 220849
MTRSDB
METAR KSDB 220848Z AUTO 34027G38KT 10SM CLR 11/04 A3004 RMK AO2 PK
WND 34038/0835 SLP135 T01060044 58005





000
SAUS46 KLOX 220848
MTRCQT
METAR KCQT 220847Z AUTO 00000KT 9SM CLR 18/16 A2987 RMK AO2 SLP113
T01780156 51001





000
SAUS46 KLOX 220836
MTRMWS
METAR KMWS 220830Z 23500G00KT MM/M11 RMK SNOW DEPTH 3.00





000
SAUS46 KLOX 220815
MTRMWS
METAR KMWS 220800Z 32504G06KT 14/M09 RMK SNOW DEPTH 3.00





000
SAUS46 KLOX 220757
MTR9L2
METAR K9L2 220755Z AUTO 16003KT 10SM CLR 11/02 A2994 RMK AO2 SLP129
T01110022 402560089 TSNO $





000
SAUS46 KLOX 220755
MTRLAX
METAR KLAX 220753Z 11004KT 10SM CLR 18/16 A2987 RMK AO2 SLP114
T01780161 402330172 $





000
SAUS46 KLOX 220754
MTRMWS
METAR KMWS 220745Z 35504G05KT 15/M08 RMK SNOW DEPTH 3.00





000
SAUS46 KLOX 220752
MTRSMX
METAR KSMX 220751Z AUTO 36008KT 10SM CLR 20/02 A2994 RMK AO2 SLP139
T02000017 402830139





000
SAUS46 KLOX 220749
MTRSDB
METAR KSDB 220748Z AUTO 33021G27KT 10SM CLR 11/04 A3005 RMK AO2 PK
WND 33031/0701 SLP141 T01060044 401610083





000
SAUS46 KLOX 220748
MTRCQT
METAR KCQT 220747Z AUTO 00000KT 10SM CLR 18/16 A2987 RMK AO2 SLP112
T01830161 402560183





000
SAUS46 KLOX 220736
MTRMWS
METAR KMWS 220730Z 23500G00KT MM/M06 RMK SNOW DEPTH 3.00





000
SAUS46 KLOX 220715
MTRMWS
METAR KMWS 220700Z 15500G02KT 15/M07 RMK SNOW DEPTH 3.00





000
SAUS46 KLOX 220657
MTR9L2
METAR K9L2 220655Z AUTO 00000KT 10SM CLR 11/02 A2994 RMK AO2 SLP129
T01110022 TSNO $





000
SAUS46 KLOX 220654
MTRLAX
METAR KLAX 220653Z 00000KT 10SM CLR 19/17 A2988 RMK AO2 SLP115
T01890167 $





000
SAUS46 KLOX 220654
MTRMWS
METAR KMWS 220645Z 35505G06KT 14/M10 RMK SNOW DEPTH 3.00





000
SAUS46 KLOX 220652
MTRSMX
METAR KSMX 220651Z AUTO 33010KT 10SM CLR 17/06 A2995 RMK AO2 SLP143
T01670056





000
SAUS46 KLOX 220649
MTRSDB
METAR KSDB 220648Z AUTO 34026G33KT 10SM CLR 11/04 A3005 RMK AO2 PK
WND 33034/0622 SLP145 T01060039





000
SAUS46 KLOX 220648
MTRCQT
METAR KCQT 220647Z AUTO 00000KT 10SM CLR 19/16 A2988 RMK AO2 SLP114
T01890161





000
SAUS46 KLOX 220636
MTRMWS
METAR KMWS 220630Z 23500G00KT MM/M03 RMK SNOW DEPTH 3.00





000
SAUS46 KLOX 220615
MTRMWS
METAR KMWS 220600Z 02502G02KT 13/M05 RMK SNOW DEPTH 3.00





000
SAUS46 KLOX 220559
MTR9L2
METAR K9L2 220555Z AUTO 24003KT 10SM CLR 13/04 A2993 RMK AO2 SLP126
T01330039 10222 20122 51013 TSNO $





000
SAUS46 KLOX 220559
MTR9L2
METAR K9L2 220555Z AUTO 24003KT 10SM CLR 13/04 A2993 RMK AO2 SLP126
T01330039 10222 20122 51013 TSNO $





000
SAUS46 KLOX 220555
MTRLAX
METAR KLAX 220553Z 15004KT 10SM CLR 19/17 A2987 RMK AO2 SLP113
T01940167 10211 20194 50005 $





000
SAUS46 KLOX 220555
MTRLAX
METAR KLAX 220553Z 15004KT 10SM CLR 19/17 A2987 RMK AO2 SLP113
T01940167 10211 20194 50005 $





000
SAUS46 KLOX 220554
MTRMWS
METAR KMWS 220545Z 35002G03KT 13/M06 RMK SNOW DEPTH 3.00





000
SAUS46 KLOX 220554
MTRMWS
METAR KMWS 220545Z 35002G03KT 13/M06 RMK SNOW DEPTH 3.00





000
SAUS46 KLOX 220553
MTRSMX
METAR KSMX 220551Z AUTO 33010KT 10SM CLR 17/07 A2995 RMK AO2 SLP143
T01720067 10233 20172 52009





000
SAUS46 KLOX 220553
MTRSMX
METAR KSMX 220551Z AUTO 33010KT 10SM CLR 17/07 A2995 RMK AO2 SLP143
T01720067 10233 20172 52009





000
SAUS46 KLOX 220549
MTRSDB
METAR KSDB 220548Z AUTO 36014G25KT 10SM CLR 11/05 A3005 RMK AO2 PK
WND 34034/0514 SLP147 T01110050 10150 20100 53004





000
SAUS46 KLOX 220549
MTRSDB
METAR KSDB 220548Z AUTO 36014G25KT 10SM CLR 11/05 A3005 RMK AO2 PK
WND 34034/0514 SLP147 T01110050 10150 20100 53004





000
SAUS46 KLOX 220548
MTRCQT
METAR KCQT 220547Z AUTO 00000KT 10SM CLR 19/16 A2987 RMK AO2 SLP111
T01890161 10228 20189 51007





000
SAUS46 KLOX 220548
MTRCQT
METAR KCQT 220547Z AUTO 00000KT 10SM CLR 19/16 A2987 RMK AO2 SLP111
T01890161 10228 20189 51007





000
SAUS46 KLOX 220536
MTRMWS
METAR KMWS 220530Z 23500G00KT MM/M05 RMK SNOW DEPTH 3.00





000
SAUS46 KLOX 220536
MTRMWS
METAR KMWS 220530Z 23500G00KT MM/M05 RMK SNOW DEPTH 3.00





000
SAUS46 KLOX 220515
MTRMWS
METAR KMWS 220500Z 25502G02KT 14/M08 RMK SNOW DEPTH 3.00





000
SAUS46 KLOX 220515
MTRMWS
METAR KMWS 220500Z 25502G02KT 14/M08 RMK SNOW DEPTH 3.00





000
SAUS46 KLOX 220458
MTR9L2
METAR K9L2 220455Z AUTO 00000KT 10SM CLR 14/04 A2992 RMK AO2 SLP124
T01440039 TSNO $





000
SAUS46 KLOX 220458
MTR9L2
METAR K9L2 220455Z AUTO 00000KT 10SM CLR 14/04 A2992 RMK AO2 SLP124
T01440039 TSNO $





000
SAUS46 KLOX 220455
MTRLAX
METAR KLAX 220453Z 00000KT 10SM CLR 20/17 A2987 RMK AO2 SLP113
T02000167 $





000
SAUS46 KLOX 220455
MTRLAX
METAR KLAX 220453Z 00000KT 10SM CLR 20/17 A2987 RMK AO2 SLP113
T02000167 $





000
SAUS46 KLOX 220454
MTRMWS
METAR KMWS 220445Z 17001G01KT 14/M10 RMK SNOW DEPTH 3.00





000
SAUS46 KLOX 220454
MTRMWS
METAR KMWS 220445Z 17001G01KT 14/M10 RMK SNOW DEPTH 3.00





000
SAUS46 KLOX 220453
MTRSMX
METAR KSMX 220451Z AUTO 32012KT 9SM CLR 17/09 A2995 RMK AO2 SLP142
T01720094





000
SAUS46 KLOX 220453
MTRSMX
METAR KSMX 220451Z AUTO 32012KT 9SM CLR 17/09 A2995 RMK AO2 SLP142
T01720094





000
SAUS46 KLOX 220449
MTRSDB
METAR KSDB 220448Z AUTO 33028KT 10SM CLR 12/06 A3003 RMK AO2 PK WND
33032/0448 SLP139 T01170056





000
SAUS46 KLOX 220449
MTRSDB
METAR KSDB 220448Z AUTO 33028KT 10SM CLR 12/06 A3003 RMK AO2 PK WND
33032/0448 SLP139 T01170056





000
SAUS46 KLOX 220448
MTRCQT
METAR KCQT 220447Z AUTO 00000KT 10SM CLR 19/17 A2986 RMK AO2 SLP110
T01940167





000
SAUS46 KLOX 220448
MTRCQT
METAR KCQT 220447Z AUTO 00000KT 10SM CLR 19/17 A2986 RMK AO2 SLP110
T01940167





000
SAUS46 KLOX 220436
MTRMWS
METAR KMWS 220430Z 23500G00KT MM/M11 RMK SNOW DEPTH 3.00





000
SAUS46 KLOX 220436
MTRMWS
METAR KMWS 220430Z 23500G00KT MM/M11 RMK SNOW DEPTH 3.00





000
SAUS46 KLOX 220359
MTR9L2
METAR K9L2 220355Z AUTO 27006KT 10SM CLR 16/04 A2990 RMK AO2 SLP118
T01560039 TSNO $





000
SAUS46 KLOX 220359
MTR9L2
METAR K9L2 220355Z AUTO 27006KT 10SM CLR 16/04 A2990 RMK AO2 SLP118
T01560039 TSNO $





000
SAUS46 KLOX 220354
MTRLAX
METAR KLAX 220353Z 00000KT 10SM CLR 20/17 A2986 RMK AO2 SLP110
T02000172 $





000
SAUS46 KLOX 220354
MTRMWS
METAR KMWS 220345Z 23500G00KT MM/M11 RMK SNOW DEPTH 3.00





000
SAUS46 KLOX 220353
MTRSMX
METAR KSMX 220351Z AUTO 32012KT 9SM CLR 17/11 A2993 RMK AO2 SLP135
T01720106





000
SAUS46 KLOX 220349
MTRSDB
METAR KSDB 220348Z AUTO 35014G20KT 10SM CLR 12/05 A3004 RMK AO2
SLP145 T01170050





000
SAUS46 KLOX 220349
MTRSDB
METAR KSDB 220348Z AUTO 35014G20KT 10SM CLR 12/05 A3004 RMK AO2
SLP145 T01170050





000
SAUS46 KLOX 220348
MTRCQT
METAR KCQT 220347Z AUTO 00000KT 10SM CLR 20/17 A2985 RMK AO2 SLP108
T02000167





000
SAUS46 KLOX 220348
MTRCQT
METAR KCQT 220347Z AUTO 00000KT 10SM CLR 20/17 A2985 RMK AO2 SLP108
T02000167





000
SAUS46 KLOX 220336
MTRMWS
METAR KMWS 220330Z 23500G00KT MM/M08 RMK SNOW DEPTH 3.00





000
SAUS46 KLOX 220336
MTRMWS
METAR KMWS 220330Z 23500G00KT MM/M08 RMK SNOW DEPTH 3.00





000
SAUS46 KLOX 220315
MTRMWS
METAR KMWS 220300Z 22002G02KT 13/M12 RMK SNOW DEPTH 3.00





000
SAUS46 KLOX 220257
MTR9L2
METAR K9L2 220255Z AUTO 25008KT 10SM CLR 16/04 A2989 RMK AO2 SLP117
T01610044 53013 TSNO $





000
SAUS46 KLOX 220254
MTRMWS
METAR KMWS 220245Z 24503G03KT 14/M08 RMK SNOW DEPTH 3.00





000
SAUS46 KLOX 220254
MTRLAX
METAR KLAX 220253Z 25006KT 10SM CLR 19/18 A2986 RMK AO2 SLP109
T01940178 53003 $





000
SAUS46 KLOX 220254
MTRMWS
METAR KMWS 220245Z 24503G03KT 14/M08 RMK SNOW DEPTH 3.00





000
SAUS46 KLOX 220254
MTRLAX
METAR KLAX 220253Z 25006KT 10SM CLR 19/18 A2986 RMK AO2 SLP109
T01940178 53003 $





000
SAUS46 KLOX 220253
MTRSMX
METAR KSMX 220251Z AUTO 30011KT 9SM CLR 17/12 A2993 RMK AO2 SLP135
T01720117 51012





000
SAUS46 KLOX 220253
MTRSMX
METAR KSMX 220251Z AUTO 30011KT 9SM CLR 17/12 A2993 RMK AO2 SLP135
T01720117 51012





000
SAUS46 KLOX 220249
MTRSDB
METAR KSDB 220248Z AUTO 35015G27KT 10SM CLR 11/05 A3004 RMK AO2 PK
WND 35027/0245 SLP146 T01060050 53009





000
SAUS46 KLOX 220249
MTRSDB
METAR KSDB 220248Z AUTO 35015G27KT 10SM CLR 11/05 A3004 RMK AO2 PK
WND 35027/0245 SLP146 T01060050 53009





000
SAUS46 KLOX 220249
MTRCQT
METAR KCQT 220247Z AUTO 00000KT 10SM CLR 21/16 A2985 RMK AO2 SLP106
T02060161 53004





000
SAUS46 KLOX 220249
MTRCQT
METAR KCQT 220247Z AUTO 00000KT 10SM CLR 21/16 A2985 RMK AO2 SLP106
T02060161 53004





000
SAUS46 KLOX 220236
MTRMWS
METAR KMWS 220230Z 23500G00KT MM/M10 RMK SNOW DEPTH 3.00





000
SAUS46 KLOX 220159
MTR9L2
METAR K9L2 220155Z AUTO 28018G21KT 10SM CLR 17/04 A2987 RMK AO2
SLP111 T01720044 TSNO $





000
SAUS46 KLOX 220159
MTR9L2
METAR K9L2 220155Z AUTO 28018G21KT 10SM CLR 17/04 A2987 RMK AO2
SLP111 T01720044 TSNO $





000
SAUS46 KLOX 220155
MTRLAX
METAR KLAX 220153Z 26008KT 10SM FEW250 20/18 A2985 RMK AO2 SLP105
T02000178 $





000
SAUS46 KLOX 220155
MTRLAX
METAR KLAX 220153Z 26008KT 10SM FEW250 20/18 A2985 RMK AO2 SLP105
T02000178 $





000
SAUS46 KLOX 220154
MTRMWS
METAR KMWS 220145Z 02502G02KT 14/03 RMK SNOW DEPTH 3.00





000
SAUS46 KLOX 220154
MTRMWS
METAR KMWS 220145Z 02502G02KT 14/03 RMK SNOW DEPTH 3.00





000
SAUS46 KLOX 220152
MTRSMX
METAR KSMX 220151Z 29012KT 9SM CLR 18/12 A2992 RMK AO2 SLP133
T01780117





000
SAUS46 KLOX 220152
MTRSMX
METAR KSMX 220151Z 29012KT 9SM CLR 18/12 A2992 RMK AO2 SLP133
T01780117





000
SAUS46 KLOX 220149
MTRCQT
METAR KCQT 220147Z AUTO 27003KT 10SM CLR 21/16 A2984 RMK AO2 SLP102
T02110156





000
SAUS46 KLOX 220149
MTRSDB
METAR KSDB 220148Z AUTO 36014G24KT 10SM CLR 12/06 A3001 RMK AO2 PK
WND 35028/0104 SLP135 T01220056





000
SAUS46 KLOX 220136
MTRMWS
METAR KMWS 220130Z 23500G00KT MM/M01 RMK SNOW DEPTH 3.00





000
SAUS46 KLOX 220115
MTRMWS
METAR KMWS 220100Z 24502G03KT 18/04 RMK SNOW DEPTH 3.00





000
SAUS46 KLOX 220059
MTR9L2
METAR K9L2 220055Z AUTO 26016KT 10SM CLR 20/04 A2985 RMK AO2 SLP102
T02000044 TSNO $





000
SAUS46 KLOX 220054
MTRMWS
METAR KMWS 220045Z 26001G03KT 20/00 RMK SNOW DEPTH 3.00





000
SAUS46 KLOX 220054
MTRLAX
METAR KLAX 220053Z 26007KT 10SM FEW150 SCT250 21/17 A2984 RMK AO2
SLP103 T02060172 $





000
SAUS46 KLOX 220052
MTRSMX
METAR KSMX 220051Z 28015KT 8SM CLR 21/11 A2991 RMK AO2 PK WND
30029/0017 SLP128 T02060106





000
SAUS46 KLOX 220049
MTRSDB
METAR KSDB 220048Z AUTO 34023G30KT 10SM CLR 13/06 A3000 RMK AO2 PK
WND 35036/2357 SLP129 T01330056





000
SAUS46 KLOX 220048
MTRCQT
METAR KCQT 220047Z AUTO VRB03KT 10SM CLR 22/15 A2983 RMK AO2 SLP097
T02220150





000
SAUS46 KLOX 220036
MTRMWS
METAR KMWS 220030Z 23500G00KT MM/05 RMK SNOW DEPTH 3.00





000
SAUS46 KLOX 220036
MTRLAX
METAR KLAX 212353Z 26011KT 10SM FEW015 SCT150 SCT250 21/18 A2985 RMK
AO2 SLP105 T02110178 10233 20211 $





000
SAUS46 KLOX 220015
MTRMWS
METAR KMWS 220000Z 22501G04KT 19/07 RMK SNOW DEPTH 3.00





000
SAUS46 KLOX 212359
MTR9L2
METAR K9L2 212355Z AUTO 27019G27KT 10SM CLR 22/04 A2985 RMK AO2 PK
WND 26028/2337 SLP097 T02220039 10256 20206 56009 TSNO $





000
SAUS46 KLOX 212354
MTRMWS
METAR KMWS 212345Z 04501G04KT 18/09 RMK SNOW DEPTH 3.00





000
SAUS46 KLOX 212354
MTRLAX
METAR KLAX 212353Z 26011KT 10SM FEW015 SCT150 SCT250 21/18 A2985 RMK
AO2 SLP105 T02110178 10233 20211 $





000
SAUS46 KLOX 212352
MTRSMX
METAR KSMX 212351Z 29016KT 10SM CLR 23/09 A2989 RMK AO2 SLP122
T02280094 10283 20228 58007





000
SAUS46 KLOX 212349
MTRSDB
METAR KSDB 212348Z AUTO 34021G29KT 10SM CLR 15/05 A3001 RMK AO2 PK
WND 35033/2329 SLP129 T01500050 10161 20106 55005





000
SAUS46 KLOX 212349
MTRCQT
METAR KCQT 212347Z AUTO 29004KT 10SM CLR 23/16 A2984 RMK AO2 SLP100
T02280156 10256 20228 56004





000
SAUS46 KLOX 212336
MTRMWS
METAR KMWS 212330Z 23500G00KT MM/08 RMK SNOW DEPTH 3.00





000
SAUS46 KLOX 212315
MTRMWS
METAR KMWS 212300Z 01502G03KT 20/08 RMK SNOW DEPTH 3.00





000
SAUS46 KLOX 212315
MTRMWS
METAR KMWS 212300Z 01502G03KT 20/08 RMK SNOW DEPTH 3.00





000
SAUS46 KLOX 212259
MTR9L2
METAR K9L2 212255Z AUTO 26017G21KT 10SM CLR 23/04 A2985 RMK AO2
SLP099 T02330044 TSNO $





000
SAUS46 KLOX 212259
MTR9L2
METAR K9L2 212255Z AUTO 26017G21KT 10SM CLR 23/04 A2985 RMK AO2
SLP099 T02330044 TSNO $





000
SAUS46 KLOX 212257
MTRMWS
METAR KMWS 212245Z 23003G05KT 20/08 RMK SNOW DEPTH 3.00





000
SAUS46 KLOX 212257
MTRMWS
METAR KMWS 212245Z 23003G05KT 20/08 RMK SNOW DEPTH 3.00





000
SAUS46 KLOX 212254
MTRLAX
METAR KLAX 212253Z 26011KT 10SM FEW015 SCT150 SCT250 22/17 A2985 RMK
AO2 SLP105 T02220172 $





000
SAUS46 KLOX 212254
MTRLAX
METAR KLAX 212253Z 26011KT 10SM FEW015 SCT150 SCT250 22/17 A2985 RMK
AO2 SLP105 T02220172 $





000
SAUS46 KLOX 212252
MTRSMX
METAR KSMX 212251Z 30019KT 9SM CLR 24/11 A2991 RMK AO2 PK WND
29026/2239 SLP127 T02390106





000
SAUS46 KLOX 212252
MTRSMX
METAR KSMX 212251Z 30019KT 9SM CLR 24/11 A2991 RMK AO2 PK WND
29026/2239 SLP127 T02390106





000
SAUS46 KLOX 212249
MTRCQT
METAR KCQT 212247Z AUTO VRB04KT 10SM CLR 23/16 A2984 RMK AO2 SLP101
T02330156





000
SAUS46 KLOX 212249
MTRCQT
METAR KCQT 212247Z AUTO VRB04KT 10SM CLR 23/16 A2984 RMK AO2 SLP101
T02330156





000
SAUS46 KLOX 212249
MTRSDB
METAR KSDB 212248Z AUTO 36014G26KT 10SM CLR 16/06 A3001 RMK AO2 PK
WND 35029/2152 SLP127 T01610056





000
SAUS46 KLOX 212249
MTRSDB
METAR KSDB 212248Z AUTO 36014G26KT 10SM CLR 16/06 A3001 RMK AO2 PK
WND 35029/2152 SLP127 T01610056





000
SAUS46 KLOX 212236
MTRMWS
METAR KMWS 212230Z 23500G00KT MM/09 RMK SNOW DEPTH 3.00





000
SAUS46 KLOX 212236
MTRMWS
METAR KMWS 212230Z 23500G00KT MM/09 RMK SNOW DEPTH 3.00





000
SAUS46 KLOX 212215
MTRMWS
METAR KMWS 212200Z 24503G06KT 20/10 RMK SNOW DEPTH 3.00





000
SAUS46 KLOX 212215
MTRMWS
METAR KMWS 212200Z 24503G06KT 20/10 RMK SNOW DEPTH 3.00





000
SAUS46 KLOX 212201
MTRLAX
METAR KLAX 212154Z 26012KT 10SM FEW050 SCT160 BKN180 BKN250 22/17
A2986 RMK AO2 SLP182 T02170172 $





000
SAUS46 KLOX 212201
MTRLAX
METAR KLAX 212154Z 26012KT 10SM FEW050 SCT160 BKN180 BKN250 22/17
A2986 RMK AO2 SLP182 T02170172 $





000
SAUS46 KLOX 212159
MTR9L2
METAR K9L2 212155Z AUTO 24013KT 10SM CLR 25/M01 A2986 RMK AO2 SLP099
T02501006 TSNO $





000
SAUS46 KLOX 212159
MTR9L2
METAR K9L2 212155Z AUTO 24013KT 10SM CLR 25/M01 A2986 RMK AO2 SLP099
T02501006 TSNO $





000
SAUS46 KLOX 212156
MTRLAX
METAR KLAX 212154Z 26012KT 10SM FEW050 SCT160 BKN180 BKN250 22/17
A2986 RMK AO2 SLP182 T02170172 $





000
SAUS46 KLOX 212156
MTRLAX
METAR KLAX 212154Z 26012KT 10SM FEW050 SCT160 BKN180 BKN250 22/17
A2986 RMK AO2 SLP182 T02170172 $





000
SAUS46 KLOX 212154
MTRMWS
METAR KMWS 212145Z 23504G06KT 21/11 RMK SNOW DEPTH 4.00





000
SAUS46 KLOX 212154
MTRMWS
METAR KMWS 212145Z 23504G06KT 21/11 RMK SNOW DEPTH 4.00





000
SAUS46 KLOX 212153
MTRSMX
METAR KSMX 212151Z 29020KT 10SM CLR 25/10 A2991 RMK AO2 WSHFT 2127
SLP128 T02500100





000
SAUS46 KLOX 212153
MTRSMX
METAR KSMX 212151Z 29020KT 10SM CLR 25/10 A2991 RMK AO2 WSHFT 2127
SLP128 T02500100





000
SAUS46 KLOX 212149
MTRSDB
METAR KSDB 212148Z AUTO 35024G30KT 10SM CLR 16/06 A3002 RMK AO2 PK
WND 35030/2139 SLP132 T01560061





000
SAUS46 KLOX 212149
MTRSDB
METAR KSDB 212148Z AUTO 35024G30KT 10SM CLR 16/06 A3002 RMK AO2 PK
WND 35030/2139 SLP132 T01560061





000
SAUS46 KLOX 212148
MTRCQT
METAR KCQT 212147Z AUTO VRB05KT 10SM CLR 23/16 A2984 RMK AO2 SLP103
T02280161





000
SAUS46 KLOX 212148
MTRSMX
SPECI KSMX 212147Z 29021KT 10SM CLR 25/10 A2991 RMK AO2 WSHFT 2127





000
SAUS46 KLOX 212148
MTRCQT
METAR KCQT 212147Z AUTO VRB05KT 10SM CLR 23/16 A2984 RMK AO2 SLP103
T02280161





000
SAUS46 KLOX 212148
MTRSMX
SPECI KSMX 212147Z 29021KT 10SM CLR 25/10 A2991 RMK AO2 WSHFT 2127





000
SAUS46 KLOX 212136
MTRMWS
METAR KMWS 212130Z 23500G00KT MM/12 RMK SNOW DEPTH 4.00





000
SAUS46 KLOX 212136
MTRMWS
METAR KMWS 212130Z 23500G00KT MM/12 RMK SNOW DEPTH 4.00





000
SAUS46 KLOX 212115
MTRMWS
METAR KMWS 212100Z 25002G04KT 21/10 RMK SNOW DEPTH 4.00





000
SAUS46 KLOX 212059
MTR9L2
METAR K9L2 212055Z AUTO 26009G18KT 10SM CLR 25/01 A2988 RMK AO2
SLP104 T02500011 58021 TSNO $





000
SAUS46 KLOX 212055
MTRLAX
METAR KLAX 212053Z 25012KT 10SM SCT180 SCT250 22/16 A2987 RMK AO2
SLP111 T02220161 58019 $





000
SAUS46 KLOX 212054
MTRMWS
METAR KMWS 212045Z 25503G04KT 21/10 RMK SNOW DEPTH 4.00





000
SAUS46 KLOX 212052
MTRSMX
METAR KSMX 212051Z 02010KT 10SM CLR 27/06 A2993 RMK AO2 SLP133
T02720056 56023





000
SAUS46 KLOX 212049
MTRSDB
METAR KSDB 212048Z AUTO 36014G28KT 10SM CLR 16/06 A3003 RMK AO2 PK
WND 36030/2023 SLP132 T01560056 58014





000
SAUS46 KLOX 212048
MTRCQT
METAR KCQT 212047Z AUTO 26006KT 10SM CLR 24/14 A2985 RMK AO2 SLP105
T02440139 58020





000
SAUS46 KLOX 212036
MTRMWS
METAR KMWS 212030Z 23500G00KT MM/10 RMK SNOW DEPTH 4.00





000
SAUS46 KLOX 212015
MTRMWS
METAR KMWS 212000Z 24504G06KT 21/10 RMK SNOW DEPTH 4.00





000
SAUS46 KLOX 211959
MTR9L2
METAR K9L2 211955Z AUTO 23014KT 10SM CLR 24/04 A2990 RMK AO2 WSHFT
1941 SLP111 T02390039 TSNO $





000
SAUS46 KLOX 211959
MTR9L2
METAR K9L2 211955Z AUTO 23014KT 10SM CLR 24/04 A2990 RMK AO2 WSHFT
1941 SLP111 T02390039 TSNO $





000
SAUS46 KLOX 211955
MTRLAX
METAR KLAX 211953Z 24007KT 10SM SCT180 BKN200 22/14 A2989 RMK AO2
SLP119 T02220144 $





000
SAUS46 KLOX 211954
MTRMWS
METAR KMWS 211945Z 24503G05KT 22/11 RMK SNOW DEPTH 4.00





000
SAUS46 KLOX 211953
MTRSMX
METAR KSMX 211951Z 03020G24KT 10SM CLR 27/06 A2994 RMK AO2 SLP139
T02670061





000
SAUS46 KLOX 211949
MTRSDB
METAR KSDB 211948Z AUTO 35019KT 10SM CLR 16/06 A3004 RMK AO2 PK WND
33032/1909 SLP136 T01560056





000
SAUS46 KLOX 211949
MTRCQT
METAR KCQT 211947Z AUTO VRB04KT 10SM CLR 25/14 A2987 RMK AO2 SLP113
T02500139 $





000
SAUS46 KLOX 211936
MTRMWS
METAR KMWS 211930Z 23500G00KT MM/08 RMK SNOW DEPTH 4.00





000
SAUS46 KLOX 211915
MTRMWS
METAR KMWS 211900Z 24503G05KT 21/07 RMK SNOW DEPTH 4.00





000
SAUS46 KLOX 211857
MTRMWS
METAR KMWS 211845Z 25503G05KT 21/06 RMK SNOW DEPTH 3.00





000
SAUS46 KLOX 211857
MTR9L2
METAR K9L2 211855Z AUTO 34006KT 10SM CLR 23/04 A2993 RMK AO2 SLP123
T02330039 TSNO $





000
SAUS46 KLOX 211854
MTRLAX
METAR KLAX 211853Z 27009KT 8SM FEW180 SCT200 22/16 A2991 RMK AO2
SLP128 T02220156 $





000
SAUS46 KLOX 211853
MTRSMX
METAR KSMX 211851Z 03015G21KT 10SM BKN250 26/06 A2997 RMK AO2 PK WND
02026/1820 SLP149 T02560061





000
SAUS46 KLOX 211849
MTRSDB
METAR KSDB 211848Z AUTO 35021G29KT 10SM CLR 13/06 A3006 RMK AO2 PK
WND 34032/1836 SLP146 T01280056





000
SAUS46 KLOX 211848
MTRCQT
METAR KCQT 211847Z AUTO 00000KT 6SM HZ CLR 25/13 A2990 RMK AO2
SLP122 T02500133





000
SAUS46 KLOX 211836
MTRMWS
METAR KMWS 211830Z 23500G00KT MM/06 RMK SNOW DEPTH 4.00





    US Dept of Commerce
    National Oceanic and Atmospheric Administration
    National Weather Service
    1325 East West Highway
    Silver Spring, MD 20910
    Page Author: NWS Internet Services Team
Disclaimer
Information Quality
Credits
Glossary
Privacy Policy
Freedom of Information Act (FOIA)
About Us
Career Opportunities